
Distance (Route):
Temperature : 4.3°C
Humidity : 99.8%
Pressure : 0hPa| Receiver | Frames | First received | Last received |
|---|---|---|---|
| DL9RDZ-1 | 378 | 2026-09-04 23:03:54 | 2026-09-05 00:43:51 |
| Receiver | Date | Latitude | Longitude | Direction | Speed | Altitude | Climb | Temperature | Humidity | Pressure | Voltage | Killtimer | Uptime | BKT | XDATA |
|---|---|---|---|---|---|---|---|---|---|---|---|---|---|---|---|
| DL9RDZ-1 | 2026-09-05 00:43:51 | 64.09334 | -21.67173 | 86° | 24km/h | 507m | -14.1m/s | 4.3°C | 99.8% | 0hPa | 0V | 08:09:00 | 00:00:00 | 00:00:00 | |
| DL9RDZ-1 | 2026-09-05 00:43:41 | 64.09332 | -21.67282 | 89° | 18km/h | 640m | -13.5m/s | 3.5°C | 0% | 0hPa | 0V | 08:10:00 | 00:00:00 | 00:00:00 | |
| DL9RDZ-1 | 2026-09-05 00:43:30 | 64.09333 | -21.67381 | 116° | 13km/h | 792m | -14.9m/s | 2.9°C | 99.3% | 0hPa | 0V | 08:10:00 | 00:00:00 | 00:00:00 | |
| DL9RDZ-1 | 2026-09-05 00:43:19 | 64.09361 | -21.67398 | 169° | 13km/h | 945m | -14.9m/s | 2.5°C | 97.8% | 0hPa | 0V | 08:10:00 | 00:00:00 | 00:00:00 | |
| DL9RDZ-1 | 2026-09-05 00:43:08 | 64.09375 | -21.67411 | 67° | 5km/h | 1097m | -15.1m/s | 2.9°C | 85.8% | 0hPa | 0V | 08:10:00 | 00:00:00 | 00:00:00 | |
| DL9RDZ-1 | 2026-09-05 00:42:57 | 64.09362 | -21.67422 | 13° | 5km/h | 1251m | -14.4m/s | 2.3°C | 84.3% | 0hPa | 0V | 08:10:00 | 00:00:00 | 00:00:00 | |
| DL9RDZ-1 | 2026-09-05 00:42:47 | 64.09347 | -21.67412 | 334° | 7km/h | 1392m | -13.7m/s | 1.0°C | 90.8% | 0hPa | 0V | 08:11:00 | 00:00:00 | 00:00:00 | |
| DL9RDZ-1 | 2026-09-05 00:42:36 | 64.09326 | -21.67404 | 355° | 7km/h | 1545m | -12.9m/s | -0.4°C | 0% | 0hPa | 0V | 08:11:00 | 00:00:00 | 00:00:00 | |
| DL9RDZ-1 | 2026-09-05 00:42:25 | 64.09303 | -21.67405 | 5° | 7km/h | 1698m | -14.5m/s | -1.5°C | 0% | 0hPa | 0V | 08:11:00 | 00:00:00 | 00:00:00 | |
| DL9RDZ-1 | 2026-09-05 00:42:14 | 64.09283 | -21.67447 | 45° | 9km/h | 1864m | -15.2m/s | -2.0°C | 98.3% | 0hPa | 0V | 08:11:00 | 00:00:00 | 00:00:00 | |
| DL9RDZ-1 | 2026-09-05 00:42:03 | 64.09265 | -21.67488 | 58° | 13km/h | 2024m | -14.9m/s | -2.6°C | 92.4% | 0hPa | 0V | 08:11:00 | 00:00:00 | 00:00:00 | |
| DL9RDZ-1 | 2026-09-05 00:41:53 | 64.09257 | -21.67552 | 82° | 11km/h | 2166m | -13.5m/s | -3.1°C | 82.3% | 0hPa | 0V | 08:11:00 | 00:00:00 | 00:00:00 | |
| DL9RDZ-1 | 2026-09-05 00:41:43 | 64.09254 | -21.67614 | 89° | 13km/h | 2307m | -15.5m/s | -3.4°C | 73.9% | 0hPa | 0V | 08:11:00 | 00:00:00 | 00:00:00 | |
| DL9RDZ-1 | 2026-09-05 00:41:32 | 64.09250 | -21.67689 | 74° | 13km/h | 2467m | -15.8m/s | -4.2°C | 77.5% | 0hPa | 0V | 08:11:00 | 00:00:00 | 00:00:00 | |
| DL9RDZ-1 | 2026-09-05 00:41:22 | 64.09238 | -21.67747 | 56° | 9km/h | 2612m | -14.8m/s | -5.4°C | 84.2% | 0hPa | 0V | 08:11:00 | 00:00:00 | 00:00:00 | |
| DL9RDZ-1 | 2026-09-05 00:41:11 | 64.09219 | -21.67782 | 19° | 7km/h | 2772m | -15.6m/s | -6.5°C | 76.5% | 0hPa | 0V | 08:11:00 | 00:00:00 | 00:00:00 | |
| DL9RDZ-1 | 2026-09-05 00:41:00 | 64.09203 | -21.67799 | 30° | 7km/h | 2933m | -14.5m/s | -7.7°C | 79.2% | 0hPa | 0V | 08:12:00 | 00:00:00 | 00:00:00 | |
| DL9RDZ-1 | 2026-09-05 00:40:49 | 64.09186 | -21.67823 | 44° | 7km/h | 3100m | -15.8m/s | -7.9°C | 62.6% | 0hPa | 0V | 08:12:00 | 00:00:00 | 00:00:00 | |
| DL9RDZ-1 | 2026-09-05 00:40:38 | 64.09173 | -21.67862 | 57° | 9km/h | 3267m | -15.2m/s | -9.2°C | 64.5% | 0hPa | 0V | 08:12:00 | 00:00:00 | 00:00:00 | |
| DL9RDZ-1 | 2026-09-05 00:40:16 | 64.09148 | -21.67947 | 46° | 4km/h | 3592m | -14.8m/s | -10.8°C | 62.7% | 0hPa | 0V | 08:13:00 | 00:00:00 | 00:00:00 | |
| DL9RDZ-1 | 2026-09-05 00:40:06 | 64.09140 | -21.67960 | 18° | 5km/h | 3738m | -15.0m/s | -11.9°C | 68.3% | 0hPa | 0V | 08:13:00 | 00:00:00 | 00:00:00 | |
| DL9RDZ-1 | 2026-09-05 00:39:56 | 64.09132 | -21.67995 | 94° | 11km/h | 3883m | -14.9m/s | -12.6°C | 18.3% | 0hPa | 0V | 08:13:00 | 00:00:00 | 00:00:00 | |
| DL9RDZ-1 | 2026-09-05 00:39:45 | 64.09130 | -21.68068 | 81° | 9km/h | 4051m | -15.1m/s | -13.3°C | 43.4% | 0hPa | 0V | 08:13:00 | 00:00:00 | 00:00:00 | |
| DL9RDZ-1 | 2026-09-05 00:39:35 | 64.09125 | -21.68123 | 67° | 11km/h | 4209m | -16.2m/s | -14.6°C | 43.6% | 0hPa | 0V | 08:13:00 | 00:00:00 | 00:00:00 | |
| DL9RDZ-1 | 2026-09-05 00:39:25 | 64.09113 | -21.68198 | 70° | 13km/h | 4383m | -15.3m/s | -15.7°C | 48.1% | 0hPa | 0V | 08:14:00 | 00:00:00 | 00:00:00 | |
| DL9RDZ-1 | 2026-09-05 00:39:13 | 64.09106 | -21.68284 | 80° | 13km/h | 4556m | -16.7m/s | -17.0°C | 47.7% | 0hPa | 0V | 08:14:00 | 00:00:00 | 00:00:00 | |
| DL9RDZ-1 | 2026-09-05 00:39:03 | 64.09099 | -21.68353 | 79° | 15km/h | 4715m | -15.9m/s | -18.2°C | 50.9% | 0hPa | 0V | 08:14:00 | 00:00:00 | 00:00:00 | |
| DL9RDZ-1 | 2026-09-05 00:38:52 | 64.09088 | -21.68426 | 73° | 13km/h | 4891m | -16.8m/s | -19.8°C | 55.4% | 0hPa | 0V | 08:14:00 | 00:00:00 | 00:00:00 | |
| DL9RDZ-1 | 2026-09-05 00:38:42 | 64.09077 | -21.68496 | 86° | 11km/h | 5054m | -15.6m/s | -20.9°C | 54.1% | 0hPa | 0V | 08:14:00 | 00:00:00 | 00:00:00 | |
| DL9RDZ-1 | 2026-09-05 00:38:31 | 64.09068 | -21.68558 | 48° | 9km/h | 5224m | -15.9m/s | -22.3°C | 62.5% | 0hPa | 0V | 08:15:00 | 00:00:00 | 00:00:00 | |
| DL9RDZ-1 | 2026-09-05 00:38:09 | 64.09017 | -21.68700 | 56° | 16km/h | 5573m | -15.6m/s | -25.1°C | 53.0% | 0hPa | 0V | 08:15:00 | 00:00:00 | 00:00:00 | |
| DL9RDZ-1 | 2026-09-05 00:37:58 | 64.08987 | -21.68799 | 69° | 20km/h | 5745m | -16.7m/s | -26.4°C | 43.4% | 0hPa | 0V | 08:15:00 | 00:00:00 | 00:00:00 | |
| DL9RDZ-1 | 2026-09-05 00:37:47 | 64.08968 | -21.68942 | 74° | 26km/h | 5923m | -15.9m/s | -27.6°C | 28.2% | 0hPa | 0V | 08:15:00 | 00:00:00 | 00:00:00 | |
| DL9RDZ-1 | 2026-09-05 00:37:36 | 64.08951 | -21.69095 | 75° | 24km/h | 6100m | -16.2m/s | -29.3°C | 39.3% | 0hPa | 0V | 08:16:00 | 00:00:00 | 00:00:00 | |
| DL9RDZ-1 | 2026-09-05 00:37:26 | 64.08936 | -21.69244 | 74° | 22km/h | 6283m | -17.5m/s | -31.0°C | 43.8% | 0hPa | 0V | 08:16:00 | 00:00:00 | 00:00:00 | |
| DL9RDZ-1 | 2026-09-05 00:37:15 | 64.08924 | -21.69362 | 81° | 20km/h | 6446m | -17.3m/s | -32.3°C | 44.8% | 0hPa | 0V | 08:16:00 | 00:00:00 | 00:00:00 | |
| DL9RDZ-1 | 2026-09-05 00:37:04 | 64.08910 | -21.69468 | 63° | 20km/h | 6630m | -17.2m/s | -33.8°C | 48.0% | 0hPa | 0V | 08:16:00 | 00:00:00 | 00:00:00 | |
| DL9RDZ-1 | 2026-09-05 00:36:53 | 64.08875 | -21.69565 | 42° | 20km/h | 6811m | -16.9m/s | -35.0°C | 48.8% | 0hPa | 0V | 08:17:00 | 00:00:00 | 00:00:00 | |
| DL9RDZ-1 | 2026-09-05 00:36:43 | 64.08838 | -21.69651 | 43° | 18km/h | 6981m | -17.1m/s | -36.5°C | 56.4% | 0hPa | 0V | 08:17:00 | 00:00:00 | 00:00:00 | |
| DL9RDZ-1 | 2026-09-05 00:36:32 | 64.08795 | -21.69720 | 36° | 18km/h | 7175m | -17.9m/s | -38.0°C | 58.7% | 0hPa | 0V | 08:17:00 | 00:00:00 | 00:00:00 | |
| DL9RDZ-1 | 2026-09-05 00:36:21 | 64.08746 | -21.69801 | 42° | 22km/h | 7367m | -19.0m/s | -39.5°C | 48.9% | 0hPa | 0V | 08:17:00 | 00:00:00 | 00:00:00 | |
| DL9RDZ-1 | 2026-09-05 00:36:10 | 64.08710 | -21.69875 | 35° | 15km/h | 7563m | -18.8m/s | -40.6°C | 48.3% | 0hPa | 0V | 08:17:00 | 00:00:00 | 00:00:00 | |
| DL9RDZ-1 | 2026-09-05 00:35:59 | 64.08670 | -21.69923 | 38° | 20km/h | 7762m | -18.9m/s | -42.1°C | 42.5% | 0hPa | 0V | 08:17:00 | 00:00:00 | 00:00:00 | |
| DL9RDZ-1 | 2026-09-05 00:35:49 | 64.08627 | -21.70007 | 50° | 24km/h | 7944m | -19.2m/s | -42.6°C | 29.4% | 0hPa | 0V | 08:17:00 | 00:00:00 | 00:00:00 | |
| DL9RDZ-1 | 2026-09-05 00:35:39 | 64.08597 | -21.70118 | 65° | 24km/h | 8132m | -19.2m/s | -43.8°C | 25.6% | 0hPa | 0V | 08:17:00 | 00:00:00 | 00:00:00 | |
| DL9RDZ-1 | 2026-09-05 00:35:28 | 64.08569 | -21.70243 | 59° | 24km/h | 8338m | -19.3m/s | -45.4°C | 28.6% | 0hPa | 0V | 08:17:00 | 00:00:00 | 00:00:00 | |
| DL9RDZ-1 | 2026-09-05 00:35:18 | 64.08533 | -21.70353 | 52° | 24km/h | 8529m | -19.9m/s | -46.6°C | 29.4% | 0hPa | 0V | 08:17:00 | 00:00:00 | 00:00:00 | |
| DL9RDZ-1 | 2026-09-05 00:35:07 | 64.08496 | -21.70479 | 58° | 22km/h | 8744m | -20.4m/s | -48.3°C | 32.6% | 0hPa | 0V | 08:18:00 | 00:00:00 | 00:00:00 | |
| DL9RDZ-1 | 2026-09-05 00:34:57 | 64.08469 | -21.70596 | 62° | 24km/h | 8938m | -18.8m/s | -49.7°C | 34.1% | 0hPa | 0V | 08:18:00 | 00:00:00 | 00:00:00 | |
| DL9RDZ-1 | 2026-09-05 00:34:46 | 64.08435 | -21.70732 | 58° | 26km/h | 9160m | -22.2m/s | -51.0°C | 34.6% | 0hPa | 0V | 08:18:00 | 00:00:00 | 00:00:00 | |
| DL9RDZ-1 | 2026-09-05 00:34:36 | 64.08395 | -21.70849 | 55° | 29km/h | 9369m | -21.3m/s | -52.2°C | 34.2% | 0hPa | 0V | 08:18:00 | 00:00:00 | 00:00:00 | |
| DL9RDZ-1 | 2026-09-05 00:34:25 | 64.08353 | -21.70989 | 66° | 27km/h | 9603m | -22.4m/s | -53.0°C | 28.7% | 0hPa | 0V | 08:18:00 | 00:00:00 | 00:00:00 | |
| DL9RDZ-1 | 2026-09-05 00:34:14 | 64.08318 | -21.71166 | 74° | 37km/h | 9839m | -22.0m/s | -53.6°C | 23.6% | 0hPa | 0V | 08:19:00 | 00:00:00 | 00:00:00 | |
| DL9RDZ-1 | 2026-09-05 00:34:03 | 64.08283 | -21.71389 | 71° | 38km/h | 10070m | -22.4m/s | -53.4°C | 15.7% | 0hPa | 0V | 08:19:00 | 00:00:00 | 00:00:00 | |
| DL9RDZ-1 | 2026-09-05 00:33:52 | 64.08257 | -21.71622 | 72° | 35km/h | 10312m | -23.3m/s | -51.8°C | 8.0% | 0hPa | 0V | 08:19:00 | 00:00:00 | 00:00:00 | |
| DL9RDZ-1 | 2026-09-05 00:33:42 | 64.08235 | -21.71814 | 83° | 38km/h | 10533m | -23.0m/s | -50.4°C | 4.2% | 0hPa | 0V | 08:19:00 | 00:00:00 | 00:00:00 | |
| DL9RDZ-1 | 2026-09-05 00:33:31 | 64.08212 | -21.72075 | 80° | 46km/h | 10775m | -21.6m/s | -47.4°C | 1.9% | 0hPa | 0V | 08:19:00 | 00:00:00 | 00:00:00 | |
| DL9RDZ-1 | 2026-09-05 00:33:21 | 64.08190 | -21.72313 | 80° | 42km/h | 10990m | -23.1m/s | -45.9°C | 1.5% | 0hPa | 0V | 08:20:00 | 00:00:00 | 00:00:00 | |
| DL9RDZ-1 | 2026-09-05 00:33:10 | 64.08167 | -21.72618 | 82° | 49km/h | 11230m | -23.5m/s | -44.8°C | 1.3% | 0hPa | 0V | 08:20:00 | 00:00:00 | 00:00:00 | |
| DL9RDZ-1 | 2026-09-05 00:33:00 | 64.08151 | -21.72874 | 85° | 42km/h | 11457m | -23.1m/s | -44.7°C | 1.3% | 0hPa | 0V | 08:20:00 | 00:00:00 | 00:00:00 | |
| DL9RDZ-1 | 2026-09-05 00:32:49 | 64.08119 | -21.73140 | 72° | 47km/h | 11709m | -23.4m/s | -44.4°C | 1.3% | 0hPa | 0V | 08:20:00 | 00:00:00 | 00:00:00 | |
| DL9RDZ-1 | 2026-09-05 00:32:39 | 64.08088 | -21.73424 | 79° | 53km/h | 11944m | -22.6m/s | -44.7°C | 1.3% | 0hPa | 0V | 08:21:00 | 00:00:00 | 00:00:00 | |
| DL9RDZ-1 | 2026-09-05 00:32:29 | 64.08065 | -21.73742 | 90° | 57km/h | 12171m | -24.1m/s | -45.1°C | 1.3% | 0hPa | 0V | 08:21:00 | 00:00:00 | 00:00:00 | |
| DL9RDZ-1 | 2026-09-05 00:32:18 | 64.08062 | -21.74090 | 91° | 51km/h | 12419m | -21.9m/s | -45.7°C | 1.3% | 0hPa | 0V | 08:21:00 | 00:00:00 | 00:00:00 | |
| DL9RDZ-1 | 2026-09-05 00:32:07 | 64.08070 | -21.74393 | 100° | 40km/h | 12660m | -22.4m/s | -44.6°C | 1.0% | 0hPa | 0V | 08:21:00 | 00:00:00 | 00:00:00 | |
| DL9RDZ-1 | 2026-09-05 00:31:56 | 64.08078 | -21.74623 | 88° | 35km/h | 12903m | -23.7m/s | -45.1°C | 1.0% | 0hPa | 0V | 08:21:00 | 00:00:00 | 00:00:00 | |
| DL9RDZ-1 | 2026-09-05 00:31:45 | 64.08070 | -21.74847 | 83° | 40km/h | 13143m | -21.1m/s | -45.8°C | 1.0% | 0hPa | 0V | 08:22:00 | 00:00:00 | 00:00:00 | |
| DL9RDZ-1 | 2026-09-05 00:31:22 | 64.07979 | -21.75399 | 61° | 49km/h | 13651m | -20.2m/s | -46.2°C | 1.1% | 0hPa | 0V | 08:22:00 | 00:00:00 | 00:00:00 | |
| DL9RDZ-1 | 2026-09-05 00:31:11 | 64.07902 | -21.75722 | 72° | 60km/h | 13887m | -24.8m/s | -46.8°C | 1.1% | 0hPa | 0V | 08:22:00 | 00:00:00 | 00:00:00 | |
| DL9RDZ-1 | 2026-09-05 00:31:01 | 64.07864 | -21.76049 | 79° | 55km/h | 14110m | -21.3m/s | -47.0°C | 1.1% | 0hPa | 0V | 08:22:00 | 00:00:00 | 00:00:00 | |
| DL9RDZ-1 | 2026-09-05 00:30:50 | 64.07844 | -21.76344 | 85° | 40km/h | 14358m | -25.4m/s | -47.1°C | 1.1% | 0hPa | 0V | 08:22:00 | 00:00:00 | 00:00:00 | |
| DL9RDZ-1 | 2026-09-05 00:30:40 | 64.07826 | -21.76555 | 77° | 40km/h | 14607m | -26.0m/s | -48.2°C | 1.1% | 0hPa | 0V | 08:22:00 | 00:00:00 | 00:00:00 | |
| DL9RDZ-1 | 2026-09-05 00:30:28 | 64.07812 | -21.76902 | 96° | 46km/h | 14928m | -24.6m/s | -49.1°C | 1.2% | 0hPa | 0V | 08:22:00 | 00:00:00 | 00:00:00 | |
| DL9RDZ-1 | 2026-09-05 00:29:39 | 64.07810 | -21.77790 | 107° | 33km/h | 16131m | -29.6m/s | -47.4°C | 0.7% | 0hPa | 0V | 00:00:00 | 00:00:00 | 00:00:00 | |
| DL9RDZ-1 | 2026-09-05 00:18:36 | 64.06380 | -21.88110 | 97° | 26km/h | 28315m | 4.8m/s | -47.7°C | 0.8% | 0hPa | 0V | 00:00:00 | 00:00:00 | 00:00:00 | |
| DL9RDZ-1 | 2026-09-05 00:15:13 | 64.05593 | -21.91141 | 89° | 29km/h | 26839m | 6.8m/s | -47.5°C | 0.8% | 0hPa | 0V | 00:00:00 | 00:00:00 | 00:00:00 | |
| DL9RDZ-1 | 2026-09-05 00:12:04 | 64.05193 | -21.92969 | 126° | 15km/h | 25637m | 5.1m/s | -47.6°C | 0.8% | 0hPa | 0V | 00:00:00 | 00:00:00 | 00:00:00 | |
| DL9RDZ-1 | 2026-09-05 00:11:44 | 64.05173 | -21.93062 | 9° | 9km/h | 25509m | 7.5m/s | -47.8°C | 0.8% | 0hPa | 0V | 00:00:00 | 00:00:00 | 00:00:00 | |
| DL9RDZ-1 | 2026-09-05 00:11:34 | 64.05154 | -21.93098 | 129° | 7km/h | 25446m | 5.5m/s | -47.5°C | 0.9% | 0hPa | 0V | 00:00:00 | 00:00:00 | 00:00:00 | |
| DL9RDZ-1 | 2026-09-05 00:11:20 | 64.05141 | -21.93182 | 103° | 22km/h | 25359m | 7.7m/s | -47.3°C | 0.8% | 0hPa | 0V | 00:00:00 | 00:00:00 | 00:00:00 | |
| DL9RDZ-1 | 2026-09-05 00:11:07 | 64.05128 | -21.93347 | 93° | 27km/h | 25276m | 7.2m/s | -46.9°C | 0.8% | 0hPa | 0V | 00:00:00 | 00:00:00 | 00:00:00 | |
| DL9RDZ-1 | 2026-09-05 00:10:55 | 64.05128 | -21.93535 | 112° | 46km/h | 25200m | 8.8m/s | -47.0°C | 0.8% | 0hPa | 0V | 00:00:00 | 00:00:00 | 00:00:00 | |
| DL9RDZ-1 | 2026-09-05 00:10:45 | 64.05134 | -21.93758 | 98° | 42km/h | 25136m | 6.1m/s | -46.9°C | 0.8% | 0hPa | 0V | 00:00:00 | 00:00:00 | 00:00:00 | |
| DL9RDZ-1 | 2026-09-05 00:10:28 | 64.05124 | -21.94242 | 91° | 42km/h | 25027m | 7.4m/s | -47.1°C | 0.8% | 0hPa | 0V | 00:00:00 | 00:00:00 | 00:00:00 | |
| DL9RDZ-1 | 2026-09-05 00:10:18 | 64.05109 | -21.94484 | 83° | 37km/h | 24961m | 7.0m/s | -46.9°C | 0.8% | 0hPa | 0V | 00:00:00 | 00:00:00 | 00:00:00 | |
| DL9RDZ-1 | 2026-09-05 00:10:07 | 64.05084 | -21.94735 | 89° | 40km/h | 24888m | 8.5m/s | -46.7°C | 0.8% | 0hPa | 0V | 00:00:00 | 00:00:00 | 00:00:00 | |
| DL9RDZ-1 | 2026-09-05 00:08:22 | 64.04596 | -21.96451 | 86° | 33km/h | 24236m | 7.0m/s | -48.4°C | 0.9% | 0hPa | 0V | 00:00:00 | 00:00:00 | 00:00:00 | |
| DL9RDZ-1 | 2026-09-05 00:07:25 | 64.04439 | -21.97350 | 16° | 16km/h | 23864m | 4.4m/s | -47.8°C | 0.9% | 0hPa | 0V | 00:00:00 | 00:00:00 | 00:00:00 | |
| DL9RDZ-1 | 2026-09-05 00:07:13 | 64.04379 | -21.97418 | 39° | 27km/h | 23791m | 5.2m/s | -47.7°C | 0.9% | 0hPa | 0V | 00:00:00 | 00:00:00 | 00:00:00 | |
| DL9RDZ-1 | 2026-09-05 00:07:02 | 64.04329 | -21.97551 | 76° | 35km/h | 23715m | 5.9m/s | -47.6°C | 0.9% | 0hPa | 0V | 00:00:00 | 00:00:00 | 00:00:00 | |
| DL9RDZ-1 | 2026-09-05 00:06:33 | 64.04224 | -21.97905 | 78° | 16km/h | 23513m | 5.7m/s | -47.2°C | 0.9% | 0hPa | 0V | 00:00:00 | 00:00:00 | 00:00:00 | |
| DL9RDZ-1 | 2026-09-05 00:06:20 | 64.04203 | -21.98041 | 85° | 18km/h | 23424m | 7.6m/s | -46.8°C | 0.9% | 0hPa | 0V | 00:00:00 | 00:00:00 | 00:00:00 | |
| DL9RDZ-1 | 2026-09-05 00:06:09 | 64.04203 | -21.98177 | 116° | 22km/h | 23349m | 7.0m/s | -46.5°C | 0.9% | 0hPa | 0V | 00:00:00 | 00:00:00 | 00:00:00 | |
| DL9RDZ-1 | 2026-09-05 00:05:58 | 64.04211 | -21.98290 | 116° | 16km/h | 23274m | 4.8m/s | -46.5°C | 0.9% | 0hPa | 0V | 00:00:00 | 00:00:00 | 00:00:00 | |
| DL9RDZ-1 | 2026-09-05 00:05:46 | 64.04211 | -21.98410 | 99° | 35km/h | 23192m | 5.7m/s | -46.3°C | 0.8% | 0hPa | 0V | 00:00:00 | 00:00:00 | 00:00:00 | |
| DL9RDZ-1 | 2026-09-05 00:05:35 | 64.04204 | -21.98560 | 103° | 22km/h | 23118m | 6.0m/s | -46.9°C | 0.8% | 0hPa | 0V | 00:00:00 | 00:00:00 | 00:00:00 | |
| DL9RDZ-1 | 2026-09-05 00:05:24 | 64.04198 | -21.98679 | 43° | 9km/h | 23045m | 6.5m/s | -46.8°C | 0.9% | 0hPa | 0V | 00:00:00 | 00:00:00 | 00:00:00 | |
| DL9RDZ-1 | 2026-09-05 00:05:10 | 64.04203 | -21.98916 | 124° | 37km/h | 22953m | 6.5m/s | -46.8°C | 0.8% | 0hPa | 0V | 00:00:00 | 00:00:00 | 00:00:00 | |
| DL9RDZ-1 | 2026-09-05 00:04:17 | 64.04135 | -22.00387 | 76° | 40km/h | 22664m | 5.9m/s | -47.8°C | 0.9% | 0hPa | 0V | 00:00:00 | 00:00:00 | 00:00:00 | |
| DL9RDZ-1 | 2026-09-05 00:04:07 | 64.04092 | -22.00653 | 73° | 47km/h | 22605m | 6.2m/s | -47.9°C | 0.9% | 0hPa | 0V | 00:00:00 | 00:00:00 | 00:00:00 | |
| DL9RDZ-1 | 2026-09-05 00:03:56 | 64.04045 | -22.00875 | 66° | 49km/h | 22554m | 6.2m/s | -48.6°C | 0.9% | 0hPa | 0V | 00:00:00 | 00:00:00 | 00:00:00 | |
| DL9RDZ-1 | 2026-09-05 00:03:46 | 64.03991 | -22.01075 | 54° | 38km/h | 22492m | 3.5m/s | -48.7°C | 1.0% | 0hPa | 0V | 00:00:00 | 00:00:00 | 00:00:00 | |
| DL9RDZ-1 | 2026-09-05 00:01:15 | 64.03366 | -22.03630 | 75° | 35km/h | 21553m | 5.2m/s | -47.8°C | 1.0% | 0hPa | 0V | 00:00:00 | 00:00:00 | 00:00:00 | |
| DL9RDZ-1 | 2026-09-05 00:01:05 | 64.03337 | -22.03803 | 81° | 42km/h | 21488m | 4.6m/s | -47.6°C | 1.0% | 0hPa | 0V | 00:00:00 | 00:00:00 | 00:00:00 | |
| DL9RDZ-1 | 2026-09-05 00:00:53 | 64.03303 | -22.04003 | 89° | 27km/h | 21417m | 6.0m/s | -47.4°C | 0.9% | 0hPa | 0V | 00:00:00 | 00:00:00 | 00:00:00 | |
| DL9RDZ-1 | 2026-09-05 00:00:42 | 64.03275 | -22.04206 | 86° | 29km/h | 21349m | 4.2m/s | -47.4°C | 0.9% | 0hPa | 0V | 00:00:00 | 00:00:00 | 00:00:00 | |
| DL9RDZ-1 | 2026-09-05 00:00:15 | 64.03190 | -22.04729 | 91° | 38km/h | 21186m | 4.1m/s | -48.2°C | 1.0% | 0hPa | 0V | 00:00:00 | 00:00:00 | 00:00:00 | |
| DL9RDZ-1 | 2026-09-04 23:59:58 | 64.03120 | -22.05037 | 67° | 47km/h | 21090m | 5.0m/s | -48.6°C | 1.0% | 0hPa | 0V | 00:00:00 | 00:00:00 | 00:00:00 | |
| DL9RDZ-1 | 2026-09-04 23:59:47 | 64.03080 | -22.05240 | 70° | 40km/h | 21027m | 5.5m/s | -48.7°C | 1.0% | 0hPa | 0V | 00:00:00 | 00:00:00 | 00:00:00 | |
| DL9RDZ-1 | 2026-09-04 23:59:07 | 64.02885 | -22.05966 | 41° | 40km/h | 20796m | 5.1m/s | -49.6°C | 1.1% | 0hPa | 0V | 00:00:00 | 00:00:00 | 00:00:00 | |
| DL9RDZ-1 | 2026-09-04 23:58:17 | 64.02656 | -22.06664 | 84° | 22km/h | 20499m | 5.1m/s | -49.2°C | 1.1% | 0hPa | 0V | 00:00:00 | 00:00:00 | 00:00:00 | |
| DL9RDZ-1 | 2026-09-04 23:57:19 | 64.02599 | -22.07616 | 88° | 40km/h | 20153m | 4.7m/s | -48.7°C | 1.1% | 0hPa | 0V | 00:00:00 | 00:00:00 | 00:00:00 | |
| DL9RDZ-1 | 2026-09-04 23:57:08 | 64.02581 | -22.07837 | 75° | 33km/h | 20084m | 5.4m/s | -48.6°C | 1.0% | 0hPa | 0V | 00:00:00 | 00:00:00 | 00:00:00 | |
| DL9RDZ-1 | 2026-09-04 23:56:57 | 64.02543 | -22.08047 | 85° | 26km/h | 20017m | 5.9m/s | -48.3°C | 1.1% | 0hPa | 0V | 00:00:00 | 00:00:00 | 00:00:00 | |
| DL9RDZ-1 | 2026-09-04 23:56:46 | 64.02502 | -22.08242 | 59° | 20km/h | 19949m | 6.9m/s | -48.1°C | 1.0% | 0hPa | 0V | 00:00:00 | 00:00:00 | 00:00:00 | |
| DL9RDZ-1 | 2026-09-04 23:56:35 | 64.02446 | -22.08403 | 79° | 29km/h | 19881m | 5.7m/s | -48.5°C | 1.0% | 0hPa | 0V | 00:00:00 | 00:00:00 | 00:00:00 | |
| DL9RDZ-1 | 2026-09-04 23:56:21 | 64.02396 | -22.08639 | 61° | 27km/h | 19793m | 5.8m/s | -48.4°C | 1.1% | 0hPa | 0V | 00:00:00 | 00:00:00 | 00:00:00 | |
| DL9RDZ-1 | 2026-09-04 23:56:01 | 64.02323 | -22.08927 | 85° | 26km/h | 19666m | 5.3m/s | -48.0°C | 1.1% | 0hPa | 0V | 00:00:00 | 00:00:00 | 00:00:00 | |
| DL9RDZ-1 | 2026-09-04 23:55:50 | 64.02304 | -22.09029 | 86° | 20km/h | 19600m | 6.9m/s | -47.8°C | 1.0% | 0hPa | 0V | 00:00:00 | 00:00:00 | 00:00:00 | |
| DL9RDZ-1 | 2026-09-04 23:55:40 | 64.02286 | -22.09134 | 72° | 26km/h | 19537m | 5.0m/s | -47.4°C | 1.0% | 0hPa | 0V | 00:00:00 | 00:00:00 | 00:00:00 | |
| DL9RDZ-1 | 2026-09-04 23:55:29 | 64.02268 | -22.09249 | 16° | 11km/h | 19467m | 6.0m/s | -47.7°C | 1.0% | 0hPa | 0V | 00:00:00 | 00:00:00 | 00:00:00 | |
| DL9RDZ-1 | 2026-09-04 23:54:51 | 64.02272 | -22.09817 | 116° | 33km/h | 19229m | 4.6m/s | -48.1°C | 1.1% | 0hPa | 0V | 00:00:00 | 00:00:00 | 00:00:00 | |
| DL9RDZ-1 | 2026-09-04 23:54:33 | 64.02271 | -22.10156 | 81° | 27km/h | 19124m | 6.9m/s | -48.3°C | 1.1% | 0hPa | 0V | 00:00:00 | 00:00:00 | 00:00:00 | |
| DL9RDZ-1 | 2026-09-04 23:54:11 | 64.02226 | -22.10556 | 64° | 31km/h | 18998m | 6.0m/s | -48.3°C | 1.1% | 0hPa | 0V | 00:00:00 | 00:00:00 | 00:00:00 | |
| DL9RDZ-1 | 2026-09-04 23:54:00 | 64.02184 | -22.10757 | 65° | 24km/h | 18941m | 4.7m/s | -48.3°C | 1.1% | 0hPa | 0V | 00:00:00 | 00:00:00 | 00:00:00 | |
| DL9RDZ-1 | 2026-09-04 23:53:32 | 64.02113 | -22.11150 | 92° | 22km/h | 18786m | 7.0m/s | -48.7°C | 1.1% | 0hPa | 0V | 00:00:00 | 00:00:00 | 00:00:00 | |
| DL9RDZ-1 | 2026-09-04 23:53:11 | 64.02113 | -22.11416 | 79° | 20km/h | 18671m | 5.1m/s | -48.5°C | 1.0% | 0hPa | 0V | 00:00:00 | 00:00:00 | 00:00:00 | |
| DL9RDZ-1 | 2026-09-04 23:53:00 | 64.02112 | -22.11572 | 97° | 38km/h | 18612m | 3.8m/s | -48.3°C | 1.1% | 0hPa | 0V | 00:00:00 | 00:00:00 | 00:00:00 | |
| DL9RDZ-1 | 2026-09-04 23:52:50 | 64.02116 | -22.11738 | 103° | 31km/h | 18557m | 5.8m/s | -48.3°C | 1.1% | 0hPa | 0V | 00:00:00 | 00:00:00 | 00:00:00 | |
| DL9RDZ-1 | 2026-09-04 23:52:39 | 64.02135 | -22.11942 | 125° | 26km/h | 18495m | 4.7m/s | -48.3°C | 1.1% | 0hPa | 0V | 00:00:00 | 00:00:00 | 00:00:00 | |
| DL9RDZ-1 | 2026-09-04 23:52:29 | 64.02160 | -22.12129 | 123° | 35km/h | 18440m | 5.4m/s | -48.5°C | 1.1% | 0hPa | 0V | 00:00:00 | 00:00:00 | 00:00:00 | |
| DL9RDZ-1 | 2026-09-04 23:52:18 | 64.02173 | -22.12368 | 99° | 47km/h | 18377m | 4.3m/s | -48.5°C | 1.1% | 0hPa | 0V | 00:00:00 | 00:00:00 | 00:00:00 | |
| DL9RDZ-1 | 2026-09-04 23:52:07 | 64.02176 | -22.12592 | 95° | 31km/h | 18317m | 5.9m/s | -48.7°C | 1.1% | 0hPa | 0V | 00:00:00 | 00:00:00 | 00:00:00 | |
| DL9RDZ-1 | 2026-09-04 23:51:29 | 64.02190 | -22.13201 | 119° | 16km/h | 18095m | 6.3m/s | -47.8°C | 1.1% | 0hPa | 0V | 00:00:00 | 00:00:00 | 00:00:00 | |
| DL9RDZ-1 | 2026-09-04 23:51:17 | 64.02210 | -22.13375 | 111° | 31km/h | 18023m | 4.9m/s | -48.0°C | 1.1% | 0hPa | 0V | 00:00:00 | 00:00:00 | 00:00:00 | |
| DL9RDZ-1 | 2026-09-04 23:51:06 | 64.02234 | -22.13558 | 121° | 24km/h | 17956m | 5.8m/s | -48.0°C | 1.1% | 0hPa | 0V | 00:00:00 | 00:00:00 | 00:00:00 | |
| DL9RDZ-1 | 2026-09-04 23:50:55 | 64.02280 | -22.13726 | 134° | 37km/h | 17889m | 4.8m/s | -48.1°C | 1.1% | 0hPa | 0V | 00:00:00 | 00:00:00 | 00:00:00 | |
| DL9RDZ-1 | 2026-09-04 23:50:45 | 64.02313 | -22.13906 | 118° | 33km/h | 17836m | 5.4m/s | -47.9°C | 1.1% | 0hPa | 0V | 00:00:00 | 00:00:00 | 00:00:00 | |
| DL9RDZ-1 | 2026-09-04 23:50:31 | 64.02325 | -22.14187 | 103° | 44km/h | 17756m | 4.8m/s | -47.6°C | 1.0% | 0hPa | 0V | 00:00:00 | 00:00:00 | 00:00:00 | |
| DL9RDZ-1 | 2026-09-04 23:50:20 | 64.02330 | -22.14406 | 93° | 38km/h | 17695m | 6.2m/s | -47.7°C | 1.1% | 0hPa | 0V | 00:00:00 | 00:00:00 | 00:00:00 | |
| DL9RDZ-1 | 2026-09-04 23:49:52 | 64.02273 | -22.15009 | 72° | 38km/h | 17542m | 6.3m/s | -47.8°C | 1.1% | 0hPa | 0V | 00:00:00 | 00:00:00 | 00:00:00 | |
| DL9RDZ-1 | 2026-09-04 23:49:43 | 64.02244 | -22.15224 | 64° | 49km/h | 17491m | 5.5m/s | -48.1°C | 1.1% | 0hPa | 0V | 00:00:00 | 00:00:00 | 00:00:00 | |
| DL9RDZ-1 | 2026-09-04 23:49:31 | 64.02203 | -22.15480 | 65° | 42km/h | 17430m | 5.1m/s | -48.3°C | 1.1% | 0hPa | 0V | 00:00:00 | 00:00:00 | 00:00:00 | |
| DL9RDZ-1 | 2026-09-04 23:49:16 | 64.02131 | -22.15782 | 56° | 31km/h | 17350m | 2.7m/s | -48.5°C | 1.1% | 0hPa | 0V | 00:00:00 | 00:00:00 | 00:00:00 | |
| DL9RDZ-1 | 2026-09-04 23:49:03 | 64.02090 | -22.16028 | 61° | 33km/h | 17276m | 4.5m/s | -48.5°C | 1.2% | 0hPa | 0V | 00:00:00 | 00:00:00 | 00:00:00 | |
| DL9RDZ-1 | 2026-09-04 23:48:53 | 64.02052 | -22.16205 | 58° | 31km/h | 17220m | 4.5m/s | -48.5°C | 1.2% | 0hPa | 0V | 00:00:00 | 00:00:00 | 00:00:00 | |
| DL9RDZ-1 | 2026-09-04 23:48:42 | 64.02019 | -22.16384 | 76° | 35km/h | 17156m | 4.1m/s | -48.3°C | 1.1% | 0hPa | 0V | 00:00:00 | 00:00:00 | 00:00:00 | |
| DL9RDZ-1 | 2026-09-04 23:48:31 | 64.01984 | -22.16574 | 72° | 37km/h | 17096m | 6.4m/s | -48.2°C | 1.1% | 0hPa | 0V | 00:00:00 | 00:00:00 | 00:00:00 | |
| DL9RDZ-1 | 2026-09-04 23:48:15 | 64.01906 | -22.16871 | 49° | 40km/h | 17004m | 5.9m/s | -48.7°C | 1.2% | 0hPa | 0V | 00:00:00 | 00:00:00 | 00:00:00 | |
| DL9RDZ-1 | 2026-09-04 23:47:55 | 64.01825 | -22.17266 | 61° | 33km/h | 16891m | 6.0m/s | -48.3°C | 1.1% | 0hPa | 0V | 00:00:00 | 00:00:00 | 00:00:00 | |
| DL9RDZ-1 | 2026-09-04 23:47:44 | 64.01795 | -22.17477 | 71° | 35km/h | 16829m | 6.3m/s | -48.1°C | 1.2% | 0hPa | 0V | 00:00:00 | 00:00:00 | 00:00:00 | |
| DL9RDZ-1 | 2026-09-04 23:47:31 | 64.01765 | -22.17745 | 84° | 29km/h | 16754m | 6.0m/s | -48.1°C | 1.1% | 0hPa | 0V | 00:00:00 | 00:00:00 | 00:00:00 | |
| DL9RDZ-1 | 2026-09-04 23:47:21 | 64.01748 | -22.17937 | 89° | 27km/h | 16695m | 4.6m/s | -48.1°C | 1.1% | 0hPa | 0V | 00:00:00 | 00:00:00 | 00:00:00 | |
| DL9RDZ-1 | 2026-09-04 23:47:10 | 64.01717 | -22.18124 | 65° | 26km/h | 16633m | 4.6m/s | -48.2°C | 1.1% | 0hPa | 0V | 00:00:00 | 00:00:00 | 00:00:00 | |
| DL9RDZ-1 | 2026-09-04 23:46:59 | 64.01669 | -22.18275 | 66° | 27km/h | 16570m | 7.2m/s | -48.4°C | 1.2% | 0hPa | 0V | 00:00:00 | 00:00:00 | 00:00:00 | |
| DL9RDZ-1 | 2026-09-04 23:46:48 | 64.01629 | -22.18430 | 49° | 29km/h | 16508m | 3.8m/s | -48.0°C | 1.2% | 0hPa | 0V | 00:00:00 | 00:00:00 | 00:00:00 | |
| DL9RDZ-1 | 2026-09-04 23:46:38 | 64.01608 | -22.18592 | 91° | 42km/h | 16451m | 6.7m/s | -48.2°C | 1.1% | 0hPa | 0V | 00:00:00 | 00:00:00 | 00:00:00 | |
| DL9RDZ-1 | 2026-09-04 23:46:28 | 64.01617 | -22.18772 | 101° | 38km/h | 16385m | 9.2m/s | -48.0°C | 1.2% | 0hPa | 0V | 00:00:00 | 00:00:00 | 00:00:00 | |
| DL9RDZ-1 | 2026-09-04 23:46:15 | 64.01640 | -22.19069 | 101° | 40km/h | 16303m | 3.7m/s | -48.1°C | 1.2% | 0hPa | 0V | 00:00:00 | 00:00:00 | 00:00:00 | |
| DL9RDZ-1 | 2026-09-04 23:46:04 | 64.01645 | -22.19348 | 90° | 49km/h | 16238m | 5.4m/s | -47.6°C | 1.1% | 0hPa | 0V | 00:00:00 | 00:00:00 | 00:00:00 | |
| DL9RDZ-1 | 2026-09-04 23:45:53 | 64.01653 | -22.19618 | 107° | 33km/h | 16165m | 5.0m/s | -47.6°C | 1.1% | 0hPa | 0V | 00:00:00 | 00:00:00 | 00:00:00 | |
| DL9RDZ-1 | 2026-09-04 23:45:42 | 64.01655 | -22.19856 | 77° | 37km/h | 16100m | 6.6m/s | -47.7°C | 1.1% | 0hPa | 0V | 00:00:00 | 00:00:00 | 00:00:00 | |
| DL9RDZ-1 | 2026-09-04 23:45:32 | 64.01662 | -22.20042 | 85° | 40km/h | 16039m | 6.4m/s | -48.1°C | 1.2% | 0hPa | 0V | 00:00:00 | 00:00:00 | 00:00:00 | |
| DL9RDZ-1 | 2026-09-04 23:45:21 | 64.01657 | -22.20267 | 91° | 42km/h | 15973m | 5.5m/s | -48.2°C | 1.2% | 0hPa | 0V | 00:00:00 | 00:00:00 | 00:00:00 | |
| DL9RDZ-1 | 2026-09-04 23:45:10 | 64.01639 | -22.20482 | 88° | 24km/h | 15906m | 5.9m/s | -48.5°C | 1.3% | 0hPa | 0V | 00:00:00 | 00:00:00 | 00:00:00 | |
| DL9RDZ-1 | 2026-09-04 23:45:00 | 64.01621 | -22.20653 | 68° | 20km/h | 15844m | 5.5m/s | -48.5°C | 1.3% | 0hPa | 0V | 00:00:00 | 00:00:00 | 00:00:00 | |
| DL9RDZ-1 | 2026-09-04 23:44:48 | 64.01600 | -22.20833 | 87° | 24km/h | 15772m | 6.1m/s | -47.9°C | 1.2% | 0hPa | 0V | 00:00:00 | 00:00:00 | 00:00:00 | |
| DL9RDZ-1 | 2026-09-04 23:44:38 | 64.01586 | -22.20965 | 72° | 26km/h | 15705m | 3.7m/s | -47.4°C | 1.2% | 0hPa | 0V | 00:00:00 | 00:00:00 | 00:00:00 | |
| DL9RDZ-1 | 2026-09-04 23:44:28 | 64.01571 | -22.21084 | 70° | 26km/h | 15643m | 6.8m/s | -47.2°C | 1.2% | 0hPa | 0V | 00:00:00 | 00:00:00 | 00:00:00 | |
| DL9RDZ-1 | 2026-09-04 23:44:18 | 64.01554 | -22.21212 | 58° | 29km/h | 15586m | 4.8m/s | -47.4°C | 1.2% | 0hPa | 0V | 00:00:00 | 00:00:00 | 00:00:00 | |
| DL9RDZ-1 | 2026-09-04 23:44:07 | 64.01551 | -22.21387 | 116° | 35km/h | 15515m | 5.9m/s | -47.5°C | 1.2% | 0hPa | 0V | 00:00:00 | 00:00:00 | 00:00:00 | |
| DL9RDZ-1 | 2026-09-04 23:43:56 | 64.01562 | -22.21595 | 88° | 33km/h | 15444m | 8.6m/s | -47.5°C | 1.2% | 0hPa | 0V | 00:00:00 | 00:00:00 | 00:00:00 | |
| DL9RDZ-1 | 2026-09-04 23:43:45 | 64.01549 | -22.21834 | 85° | 35km/h | 15376m | 6.2m/s | -47.3°C | 1.2% | 0hPa | 0V | 00:00:00 | 00:00:00 | 00:00:00 | |
| DL9RDZ-1 | 2026-09-04 23:43:34 | 64.01539 | -22.22063 | 100° | 37km/h | 15309m | 5.2m/s | -47.9°C | 1.3% | 0hPa | 0V | 00:00:00 | 00:00:00 | 00:00:00 | |
| DL9RDZ-1 | 2026-09-04 23:43:19 | 64.01527 | -22.22404 | 94° | 37km/h | 15221m | 5.4m/s | -47.5°C | 1.2% | 0hPa | 0V | 00:00:00 | 00:00:00 | 00:00:00 | |
| DL9RDZ-1 | 2026-09-04 23:43:09 | 64.01531 | -22.22609 | 109° | 38km/h | 15154m | 4.9m/s | -47.7°C | 1.2% | 0hPa | 0V | 00:00:00 | 00:00:00 | 00:00:00 | |
| DL9RDZ-1 | 2026-09-04 23:42:58 | 64.01537 | -22.22845 | 87° | 37km/h | 15084m | 7.1m/s | -47.7°C | 1.2% | 0hPa | 0V | 00:00:00 | 00:00:00 | 00:00:00 | |
| DL9RDZ-1 | 2026-09-04 23:42:46 | 64.01547 | -22.23146 | 99° | 44km/h | 15009m | 4.8m/s | -48.0°C | 1.3% | 0hPa | 0V | 00:00:00 | 00:00:00 | 00:00:00 | |
| DL9RDZ-1 | 2026-09-04 23:42:35 | 64.01553 | -22.23423 | 85° | 42km/h | 14944m | 7.0m/s | -47.9°C | 1.2% | 0hPa | 0V | 00:00:00 | 00:00:00 | 00:00:00 | |
| DL9RDZ-1 | 2026-09-04 23:42:24 | 64.01546 | -22.23718 | 80° | 49km/h | 14872m | 6.2m/s | -48.0°C | 1.3% | 0hPa | 0V | 00:00:00 | 00:00:00 | 00:00:00 | |
| DL9RDZ-1 | 2026-09-04 23:42:14 | 64.01541 | -22.24038 | 89° | 69km/h | 14810m | 6.9m/s | -48.2°C | 1.3% | 0hPa | 0V | 00:00:00 | 00:00:00 | 00:00:00 | |
| DL9RDZ-1 | 2026-09-04 23:42:04 | 64.01521 | -22.24393 | 78° | 53km/h | 14746m | 6.7m/s | -48.3°C | 1.3% | 0hPa | 0V | 00:00:00 | 00:00:00 | 00:00:00 | |
| DL9RDZ-1 | 2026-09-04 23:41:53 | 64.01485 | -22.24701 | 71° | 58km/h | 14689m | 5.9m/s | -48.2°C | 1.4% | 0hPa | 0V | 00:00:00 | 00:00:00 | 00:00:00 | |
| DL9RDZ-1 | 2026-09-04 23:41:43 | 64.01442 | -22.24978 | 79° | 57km/h | 14630m | 8.7m/s | -47.8°C | 1.3% | 0hPa | 0V | 00:00:00 | 00:00:00 | 00:00:00 | |
| DL9RDZ-1 | 2026-09-04 23:41:32 | 64.01395 | -22.25260 | 67° | 53km/h | 14563m | 7.8m/s | -47.4°C | 1.2% | 0hPa | 0V | 00:00:00 | 00:00:00 | 00:00:00 | |
| DL9RDZ-1 | 2026-09-04 23:41:21 | 64.01347 | -22.25514 | 56° | 44km/h | 14498m | 3.1m/s | -47.2°C | 1.3% | 0hPa | 0V | 00:00:00 | 00:00:00 | 00:00:00 | |
| DL9RDZ-1 | 2026-09-04 23:41:11 | 64.01318 | -22.25736 | 85° | 37km/h | 14443m | 6.0m/s | -47.2°C | 1.3% | 0hPa | 0V | 00:00:00 | 00:00:00 | 00:00:00 | |
| DL9RDZ-1 | 2026-09-04 23:41:00 | 64.01303 | -22.26002 | 79° | 49km/h | 14377m | 7.2m/s | -47.1°C | 1.3% | 0hPa | 0V | 00:00:00 | 00:00:00 | 00:00:00 | |
| DL9RDZ-1 | 2026-09-04 23:40:50 | 64.01280 | -22.26263 | 85° | 49km/h | 14319m | 3.8m/s | -46.9°C | 1.3% | 0hPa | 0V | 00:00:00 | 00:00:00 | 00:00:00 | |
| DL9RDZ-1 | 2026-09-04 23:40:40 | 64.01250 | -22.26572 | 76° | 46km/h | 14260m | 4.9m/s | -46.8°C | 1.3% | 0hPa | 0V | 00:00:00 | 00:00:00 | 00:00:00 | |
| DL9RDZ-1 | 2026-09-04 23:40:29 | 64.01218 | -22.26879 | 74° | 57km/h | 14211m | 6.5m/s | -46.8°C | 1.3% | 0hPa | 0V | 00:00:00 | 00:00:00 | 00:00:00 | |
| DL9RDZ-1 | 2026-09-04 23:40:18 | 64.01185 | -22.27208 | 83° | 57km/h | 14155m | 5.7m/s | -46.7°C | 1.2% | 0hPa | 0V | 00:00:00 | 00:00:00 | 00:00:00 | |
| DL9RDZ-1 | 2026-09-04 23:40:08 | 64.01156 | -22.27477 | 74° | 60km/h | 14104m | 3.9m/s | -46.7°C | 1.2% | 0hPa | 0V | 00:00:00 | 00:00:00 | 00:00:00 | |
| DL9RDZ-1 | 2026-09-04 23:39:58 | 64.01113 | -22.27791 | 73° | 60km/h | 14051m | 6.6m/s | -47.2°C | 1.3% | 0hPa | 0V | 00:00:00 | 00:00:00 | 00:00:00 | |
| DL9RDZ-1 | 2026-09-04 23:39:47 | 64.01079 | -22.28110 | 72° | 53km/h | 13994m | 4.0m/s | -47.5°C | 1.3% | 0hPa | 0V | 00:00:00 | 00:00:00 | 00:00:00 | |
| DL9RDZ-1 | 2026-09-04 23:39:36 | 64.01014 | -22.28399 | 67° | 51km/h | 13937m | 7.8m/s | -47.3°C | 1.3% | 0hPa | 0V | 00:00:00 | 00:00:00 | 00:00:00 | |
| DL9RDZ-1 | 2026-09-04 23:39:26 | 64.00943 | -22.28666 | 67° | 55km/h | 13878m | 7.6m/s | -47.4°C | 1.4% | 0hPa | 0V | 00:00:00 | 00:00:00 | 00:00:00 | |
| DL9RDZ-1 | 2026-09-04 23:39:00 | 64.00812 | -22.29187 | 64° | 35km/h | 13705m | 5.7m/s | -46.7°C | 1.3% | 0hPa | 0V | 00:00:00 | 00:00:00 | 00:00:00 | |
| DL9RDZ-1 | 2026-09-04 23:38:50 | 64.00777 | -22.29374 | 70° | 38km/h | 13645m | 6.7m/s | -47.0°C | 1.4% | 0hPa | 0V | 00:00:00 | 00:00:00 | 00:00:00 | |
| DL9RDZ-1 | 2026-09-04 23:38:39 | 64.00759 | -22.29601 | 106° | 42km/h | 13579m | 6.2m/s | -46.7°C | 1.3% | 0hPa | 0V | 00:00:00 | 00:00:00 | 00:00:00 | |
| DL9RDZ-1 | 2026-09-04 23:38:21 | 64.00749 | -22.29988 | 90° | 37km/h | 13471m | 8.5m/s | -46.4°C | 1.3% | 0hPa | 0V | 00:00:00 | 00:00:00 | 00:00:00 | |
| DL9RDZ-1 | 2026-09-04 23:38:11 | 64.00751 | -22.30175 | 86° | 29km/h | 13409m | 4.9m/s | -46.2°C | 1.3% | 0hPa | 0V | 00:00:00 | 00:00:00 | 00:00:00 | |
| DL9RDZ-1 | 2026-09-04 23:38:00 | 64.00767 | -22.30362 | 123° | 24km/h | 13347m | 5.9m/s | -45.8°C | 1.2% | 0hPa | 0V | 00:00:00 | 00:00:00 | 00:00:00 | |
| DL9RDZ-1 | 2026-09-04 23:37:49 | 64.00791 | -22.30553 | 109° | 40km/h | 13286m | 4.9m/s | -45.9°C | 1.3% | 0hPa | 0V | 00:00:00 | 00:00:00 | 00:00:00 | |
| DL9RDZ-1 | 2026-09-04 23:37:38 | 64.00799 | -22.30828 | 83° | 35km/h | 13227m | 4.2m/s | -45.8°C | 1.3% | 0hPa | 0V | 00:00:00 | 00:00:00 | 00:00:00 | |
| DL9RDZ-1 | 2026-09-04 23:37:28 | 64.00809 | -22.31051 | 77° | 33km/h | 13179m | 4.7m/s | -46.1°C | 1.3% | 0hPa | 0V | 00:00:00 | 00:00:00 | 00:00:00 | |
| DL9RDZ-1 | 2026-09-04 23:37:18 | 64.00816 | -22.31271 | 83° | 38km/h | 13127m | 6.5m/s | -46.2°C | 1.3% | 0hPa | 0V | 00:00:00 | 00:00:00 | 00:00:00 | |
| DL9RDZ-1 | 2026-09-04 23:37:06 | 64.00830 | -22.31515 | 101° | 38km/h | 13059m | 4.0m/s | -45.9°C | 1.4% | 0hPa | 0V | 00:00:00 | 00:00:00 | 00:00:00 | |
| DL9RDZ-1 | 2026-09-04 23:36:55 | 64.00839 | -22.31723 | 99° | 35km/h | 12995m | 5.2m/s | -45.9°C | 1.4% | 0hPa | 0V | 00:00:00 | 00:00:00 | 00:00:00 | |
| DL9RDZ-1 | 2026-09-04 23:36:44 | 64.00871 | -22.31957 | 121° | 35km/h | 12928m | 4.5m/s | -45.7°C | 1.4% | 0hPa | 0V | 00:00:00 | 00:00:00 | 00:00:00 | |
| DL9RDZ-1 | 2026-09-04 23:36:33 | 64.00908 | -22.32195 | 110° | 44km/h | 12863m | 6.1m/s | -45.9°C | 1.4% | 0hPa | 0V | 00:00:00 | 00:00:00 | 00:00:00 | |
| DL9RDZ-1 | 2026-09-04 23:36:22 | 64.00942 | -22.32480 | 101° | 57km/h | 12799m | 5.7m/s | -45.8°C | 1.4% | 0hPa | 0V | 00:00:00 | 00:00:00 | 00:00:00 | |
| DL9RDZ-1 | 2026-09-04 23:36:11 | 64.00982 | -22.32799 | 110° | 46km/h | 12732m | 8.4m/s | -45.9°C | 1.5% | 0hPa | 0V | 00:00:00 | 00:00:00 | 00:00:00 | |
| DL9RDZ-1 | 2026-09-04 23:36:01 | 64.01018 | -22.33079 | 102° | 55km/h | 12676m | 5.1m/s | -45.9°C | 1.5% | 0hPa | 0V | 00:00:00 | 00:00:00 | 00:00:00 | |
| DL9RDZ-1 | 2026-09-04 23:35:50 | 64.01034 | -22.33402 | 92° | 51km/h | 12611m | 7.0m/s | -45.7°C | 1.5% | 0hPa | 0V | 00:00:00 | 00:00:00 | 00:00:00 | |
| DL9RDZ-1 | 2026-09-04 23:35:39 | 64.01040 | -22.33739 | 93° | 58km/h | 12545m | 5.1m/s | -45.8°C | 1.6% | 0hPa | 0V | 00:00:00 | 00:00:00 | 00:00:00 | |
| DL9RDZ-1 | 2026-09-04 23:35:28 | 64.01047 | -22.34097 | 95° | 66km/h | 12480m | 4.6m/s | -46.0°C | 1.6% | 0hPa | 0V | 00:00:00 | 00:00:00 | 00:00:00 | |
| DL9RDZ-1 | 2026-09-04 23:35:17 | 64.01031 | -22.34457 | 89° | 58km/h | 12417m | 6.7m/s | -46.1°C | 1.7% | 0hPa | 0V | 00:00:00 | 00:00:00 | 00:00:00 | |
| DL9RDZ-1 | 2026-09-04 23:35:06 | 64.01015 | -22.34814 | 80° | 57km/h | 12351m | 4.8m/s | -45.9°C | 1.7% | 0hPa | 0V | 00:00:00 | 00:00:00 | 00:00:00 | |
| DL9RDZ-1 | 2026-09-04 23:34:55 | 64.01000 | -22.35160 | 69° | 66km/h | 12293m | 5.3m/s | -45.9°C | 1.7% | 0hPa | 0V | 00:00:00 | 00:00:00 | 00:00:00 | |
| DL9RDZ-1 | 2026-09-04 23:34:45 | 64.00980 | -22.35486 | 84° | 47km/h | 12238m | 5.9m/s | -46.0°C | 1.7% | 0hPa | 0V | 00:00:00 | 00:00:00 | 00:00:00 | |
| DL9RDZ-1 | 2026-09-04 23:34:34 | 64.00955 | -22.35826 | 84° | 62km/h | 12180m | 4.2m/s | -45.7°C | 1.7% | 0hPa | 0V | 00:00:00 | 00:00:00 | 00:00:00 | |
| DL9RDZ-1 | 2026-09-04 23:34:24 | 64.00932 | -22.36184 | 78° | 55km/h | 12126m | 5.6m/s | -45.6°C | 1.7% | 0hPa | 0V | 00:00:00 | 00:00:00 | 00:00:00 | |
| DL9RDZ-1 | 2026-09-04 23:34:09 | 64.00884 | -22.36630 | 86° | 47km/h | 12057m | 3.0m/s | -45.7°C | 1.7% | 0hPa | 0V | 00:00:00 | 00:00:00 | 00:00:00 | |
| DL9RDZ-1 | 2026-09-04 23:33:58 | 64.00839 | -22.36958 | 71° | 53km/h | 11993m | 5.2m/s | -45.5°C | 1.7% | 0hPa | 0V | 00:00:00 | 00:00:00 | 00:00:00 | |
| DL9RDZ-1 | 2026-09-04 23:33:47 | 64.00801 | -22.37270 | 76° | 49km/h | 11935m | 3.5m/s | -45.1°C | 1.6% | 0hPa | 0V | 00:00:00 | 00:00:00 | 00:00:00 | |
| DL9RDZ-1 | 2026-09-04 23:33:37 | 64.00780 | -22.37544 | 81° | 57km/h | 11880m | 5.9m/s | -44.9°C | 1.5% | 0hPa | 0V | 00:00:00 | 00:00:00 | 00:00:00 | |
| DL9RDZ-1 | 2026-09-04 23:33:27 | 64.00751 | -22.37807 | 77° | 35km/h | 11812m | 5.7m/s | -44.8°C | 1.5% | 0hPa | 0V | 00:00:00 | 00:00:00 | 00:00:00 | |
| DL9RDZ-1 | 2026-09-04 23:32:56 | 64.00679 | -22.38509 | 91° | 40km/h | 11636m | 7.1m/s | -44.8°C | 1.5% | 0hPa | 0V | 00:00:00 | 00:00:00 | 00:00:00 | |
| DL9RDZ-1 | 2026-09-04 23:32:45 | 64.00671 | -22.38734 | 39° | 20km/h | 11572m | 4.8m/s | -44.9°C | 1.6% | 0hPa | 0V | 00:00:00 | 00:00:00 | 00:00:00 | |
| DL9RDZ-1 | 2026-09-04 23:32:31 | 64.00647 | -22.39062 | 87° | 35km/h | 11496m | 4.7m/s | -45.0°C | 1.6% | 0hPa | 0V | 00:00:00 | 00:00:00 | 00:00:00 | |
| DL9RDZ-1 | 2026-09-04 23:32:19 | 64.00646 | -22.39407 | 87° | 51km/h | 11433m | 3.0m/s | -45.3°C | 1.7% | 0hPa | 0V | 00:00:00 | 00:00:00 | 00:00:00 | |
| DL9RDZ-1 | 2026-09-04 23:32:04 | 64.00600 | -22.39818 | 73° | 46km/h | 11353m | 4.6m/s | -45.9°C | 1.8% | 0hPa | 0V | 00:00:00 | 00:00:00 | 00:00:00 | |
| DL9RDZ-1 | 2026-09-04 23:31:53 | 64.00558 | -22.40116 | 71° | 49km/h | 11296m | 4.0m/s | -45.9°C | 1.8% | 0hPa | 0V | 00:00:00 | 00:00:00 | 00:00:00 | |
| DL9RDZ-1 | 2026-09-04 23:31:41 | 64.00508 | -22.40475 | 87° | 53km/h | 11231m | 3.7m/s | -46.0°C | 1.9% | 0hPa | 0V | 00:00:00 | 00:00:00 | 00:00:00 | |
| DL9RDZ-1 | 2026-09-04 23:31:31 | 64.00472 | -22.40758 | 91° | 49km/h | 11181m | 5.1m/s | -46.4°C | 2.0% | 0hPa | 0V | 00:00:00 | 00:00:00 | 00:00:00 | |
| DL9RDZ-1 | 2026-09-04 23:31:18 | 64.00422 | -22.41183 | 103° | 46km/h | 11109m | 7.1m/s | -46.6°C | 2.1% | 0hPa | 0V | 00:00:00 | 00:00:00 | 00:00:00 | |
| DL9RDZ-1 | 2026-09-04 23:31:06 | 64.00392 | -22.41488 | 77° | 51km/h | 11044m | 1.9m/s | -47.0°C | 2.4% | 0hPa | 0V | 00:00:00 | 00:00:00 | 00:00:00 | |
| DL9RDZ-1 | 2026-09-04 23:30:55 | 64.00362 | -22.41736 | 79° | 58km/h | 10980m | 5.7m/s | -47.4°C | 2.5% | 0hPa | 0V | 00:00:00 | 00:00:00 | 00:00:00 | |
| DL9RDZ-1 | 2026-09-04 23:30:44 | 64.00332 | -22.42071 | 74° | 55km/h | 10920m | 4.8m/s | -47.5°C | 2.7% | 0hPa | 0V | 00:00:00 | 00:00:00 | 00:00:00 | |
| DL9RDZ-1 | 2026-09-04 23:30:34 | 64.00297 | -22.42371 | 71° | 53km/h | 10873m | 6.0m/s | -47.3°C | 2.8% | 0hPa | 0V | 00:00:00 | 00:00:00 | 00:00:00 | |
| DL9RDZ-1 | 2026-09-04 23:30:24 | 64.00258 | -22.42639 | 80° | 40km/h | 10823m | 6.3m/s | -47.5°C | 3.4% | 0hPa | 0V | 00:00:00 | 00:00:00 | 00:00:00 | |
| DL9RDZ-1 | 2026-09-04 23:30:15 | 64.00209 | -22.42936 | 60° | 73km/h | 10766m | 4.1m/s | -48.3°C | 4.7% | 0hPa | 0V | 00:00:00 | 00:00:00 | 00:00:00 | |
| DL9RDZ-1 | 2026-09-04 23:30:05 | 64.00153 | -22.43172 | 125° | 37km/h | 10697m | 8.8m/s | -49.0°C | 6.0% | 0hPa | 0V | 00:00:00 | 00:00:00 | 00:00:00 | |
| DL9RDZ-1 | 2026-09-04 23:29:54 | 64.00136 | -22.43433 | 118° | 46km/h | 10625m | 4.3m/s | -50.3°C | 8.2% | 0hPa | 0V | 00:00:00 | 00:00:00 | 00:00:00 | |
| DL9RDZ-1 | 2026-09-04 23:29:43 | 64.00115 | -22.43668 | 68° | 31km/h | 10554m | 5.8m/s | -50.3°C | 9.4% | 0hPa | 0V | 00:00:00 | 00:00:00 | 00:00:00 | |
| DL9RDZ-1 | 2026-09-04 23:29:32 | 64.00085 | -22.43876 | 62° | 37km/h | 10488m | 5.5m/s | -51.0°C | 11.1% | 0hPa | 0V | 00:00:00 | 00:00:00 | 00:00:00 | |
| DL9RDZ-1 | 2026-09-04 23:29:21 | 64.00069 | -22.44082 | 70° | 47km/h | 10419m | 6.1m/s | -51.0°C | 12.0% | 0hPa | 0V | 00:00:00 | 00:00:00 | 00:00:00 | |
| DL9RDZ-1 | 2026-09-04 23:29:10 | 64.00049 | -22.44283 | 89° | 24km/h | 10348m | 4.3m/s | -51.5°C | 13.8% | 0hPa | 0V | 00:00:00 | 00:00:00 | 00:00:00 | |
| DL9RDZ-1 | 2026-09-04 23:28:59 | 64.00030 | -22.44496 | 72° | 44km/h | 10290m | 4.0m/s | -51.6°C | 16.0% | 0hPa | 0V | 00:00:00 | 00:00:00 | 00:00:00 | |
| DL9RDZ-1 | 2026-09-04 23:28:48 | 64.00015 | -22.44709 | 94° | 53km/h | 10223m | 6.3m/s | -51.7°C | 18.7% | 0hPa | 0V | 00:00:00 | 00:00:00 | 00:00:00 | |
| DL9RDZ-1 | 2026-09-04 23:28:36 | 64.00006 | -22.45008 | 63° | 38km/h | 10144m | 7.7m/s | -52.2°C | 22.4% | 0hPa | 0V | 00:00:00 | 00:00:00 | 00:00:00 | |
| DL9RDZ-1 | 2026-09-04 23:28:26 | 63.99972 | -22.45250 | 98° | 46km/h | 10085m | 2.6m/s | -52.6°C | 26.6% | 0hPa | 0V | 00:00:00 | 00:00:00 | 00:00:00 | |
| DL9RDZ-1 | 2026-09-04 23:28:16 | 63.99923 | -22.45453 | 57° | 38km/h | 10020m | 8.2m/s | -53.0°C | 28.2% | 0hPa | 0V | 00:00:00 | 00:00:00 | 00:00:00 | |
| DL9RDZ-1 | 2026-09-04 23:28:05 | 63.99886 | -22.45662 | 74° | 51km/h | 9951m | 6.5m/s | -52.8°C | 31.9% | 0hPa | 0V | 00:00:00 | 00:00:00 | 00:00:00 | |
| DL9RDZ-1 | 2026-09-04 23:27:55 | 63.99874 | -22.45849 | 115° | 29km/h | 9893m | 5.7m/s | -53.0°C | 33.6% | 0hPa | 0V | 00:00:00 | 00:00:00 | 00:00:00 | |
| DL9RDZ-1 | 2026-09-04 23:27:43 | 63.99835 | -22.46156 | 47° | 22km/h | 9803m | 10.7m/s | -53.1°C | 30.9% | 0hPa | 0V | 00:00:00 | 00:00:00 | 00:00:00 | |
| DL9RDZ-1 | 2026-09-04 23:27:33 | 63.99811 | -22.46344 | 110° | 40km/h | 9736m | 5.6m/s | -52.8°C | 30.8% | 0hPa | 0V | 00:00:00 | 00:00:00 | 00:00:00 | |
| DL9RDZ-1 | 2026-09-04 23:27:23 | 63.99777 | -22.46544 | 70° | 53km/h | 9678m | 4.2m/s | -52.3°C | 32.5% | 0hPa | 0V | 00:00:00 | 00:00:00 | 00:00:00 | |
| DL9RDZ-1 | 2026-09-04 23:27:12 | 63.99732 | -22.46752 | 51° | 44km/h | 9622m | 7.3m/s | -52.0°C | 31.8% | 0hPa | 0V | 00:00:00 | 00:00:00 | 00:00:00 | |
| DL9RDZ-1 | 2026-09-04 23:27:01 | 63.99689 | -22.46894 | 37° | 20km/h | 9549m | 7.0m/s | -51.8°C | 30.4% | 0hPa | 0V | 00:00:00 | 00:00:00 | 00:00:00 | |
| DL9RDZ-1 | 2026-09-04 23:26:50 | 63.99644 | -22.47069 | 104° | 26km/h | 9473m | 0.7m/s | -51.8°C | 32.7% | 0hPa | 0V | 00:00:00 | 00:00:00 | 00:00:00 | |
| DL9RDZ-1 | 2026-09-04 23:26:39 | 63.99608 | -22.47228 | 64° | 29km/h | 9396m | 8.4m/s | -51.6°C | 35.1% | 0hPa | 0V | 00:00:00 | 00:00:00 | 00:00:00 | |
| DL9RDZ-1 | 2026-09-04 23:26:29 | 63.99557 | -22.47369 | 19° | 40km/h | 9336m | 6.3m/s | -51.5°C | 36.5% | 0hPa | 0V | 00:00:00 | 00:00:00 | 00:00:00 | |
| DL9RDZ-1 | 2026-09-04 23:26:17 | 63.99507 | -22.47497 | 59° | 5km/h | 9275m | 1.0m/s | -51.3°C | 36.8% | 0hPa | 0V | 00:00:00 | 00:00:00 | 00:00:00 | |
| DL9RDZ-1 | 2026-09-04 23:26:05 | 63.99453 | -22.47636 | 13° | 22km/h | 9205m | 4.1m/s | -50.8°C | 34.4% | 0hPa | 0V | 00:00:00 | 00:00:00 | 00:00:00 | |
| DL9RDZ-1 | 2026-09-04 23:25:54 | 63.99416 | -22.47777 | 82° | 15km/h | 9125m | 5.0m/s | -50.5°C | 36.2% | 0hPa | 0V | 00:00:00 | 00:00:00 | 00:00:00 | |
| DL9RDZ-1 | 2026-09-04 23:25:44 | 63.99385 | -22.47967 | 55° | 31km/h | 9057m | 11.0m/s | -50.1°C | 31.9% | 0hPa | 0V | 00:00:00 | 00:00:00 | 00:00:00 | |
| DL9RDZ-1 | 2026-09-04 23:25:33 | 63.99335 | -22.48120 | 122° | 15km/h | 8983m | 6.2m/s | -49.6°C | 29.7% | 0hPa | 0V | 00:00:00 | 00:00:00 | 00:00:00 | |
| DL9RDZ-1 | 2026-09-04 23:25:22 | 63.99292 | -22.48303 | 51° | 40km/h | 8918m | 6.6m/s | -49.2°C | 30.0% | 0hPa | 0V | 00:00:00 | 00:00:00 | 00:00:00 | |
| DL9RDZ-1 | 2026-09-04 23:25:11 | 63.99243 | -22.48483 | 355° | 13km/h | 8833m | 8.2m/s | -48.5°C | 27.6% | 0hPa | 0V | 00:00:00 | 00:00:00 | 00:00:00 | |
| DL9RDZ-1 | 2026-09-04 23:25:01 | 63.99204 | -22.48618 | 35° | 33km/h | 8761m | 6.3m/s | -48.1°C | 29.0% | 0hPa | 0V | 00:00:00 | 00:00:00 | 00:00:00 | |
| DL9RDZ-1 | 2026-09-04 23:24:51 | 63.99153 | -22.48727 | 354° | 24km/h | 8690m | 6.4m/s | -47.7°C | 26.9% | 0hPa | 0V | 00:00:00 | 00:00:00 | 00:00:00 | |
| DL9RDZ-1 | 2026-09-04 23:24:37 | 63.99085 | -22.48944 | 63° | 31km/h | 8596m | 7.5m/s | -47.0°C | 27.0% | 0hPa | 0V | 00:00:00 | 00:00:00 | 00:00:00 | |
| DL9RDZ-1 | 2026-09-04 23:24:25 | 63.99035 | -22.49119 | 105° | 16km/h | 8525m | 8.9m/s | -46.5°C | 27.8% | 0hPa | 0V | 00:00:00 | 00:00:00 | 00:00:00 | |
| DL9RDZ-1 | 2026-09-04 23:24:15 | 63.98993 | -22.49243 | 341° | 13km/h | 8471m | 7.5m/s | -46.1°C | 26.8% | 0hPa | 0V | 00:00:00 | 00:00:00 | 00:00:00 | |
| DL9RDZ-1 | 2026-09-04 23:24:05 | 63.98939 | -22.49376 | 55° | 38km/h | 8417m | 9.0m/s | -45.6°C | 25.2% | 0hPa | 0V | 00:00:00 | 00:00:00 | 00:00:00 | |
| DL9RDZ-1 | 2026-09-04 23:23:54 | 63.98892 | -22.49481 | 355° | 22km/h | 8341m | 1.7m/s | -45.0°C | 26.6% | 0hPa | 0V | 00:00:00 | 00:00:00 | 00:00:00 | |
| DL9RDZ-1 | 2026-09-04 23:23:43 | 63.98869 | -22.49590 | 30° | 24km/h | 8265m | 8.2m/s | -44.5°C | 24.3% | 0hPa | 0V | 00:00:00 | 00:00:00 | 00:00:00 | |
| DL9RDZ-1 | 2026-09-04 23:23:32 | 63.98833 | -22.49749 | 75° | 31km/h | 8206m | 10.1m/s | -44.1°C | 22.5% | 0hPa | 0V | 00:00:00 | 00:00:00 | 00:00:00 | |
| DL9RDZ-1 | 2026-09-04 23:23:11 | 63.98733 | -22.49977 | 42° | 42km/h | 8067m | 8.6m/s | -43.0°C | 21.8% | 0hPa | 0V | 00:00:00 | 00:00:00 | 00:00:00 | |
| DL9RDZ-1 | 2026-09-04 23:23:00 | 63.98699 | -22.50126 | 58° | 40km/h | 7997m | 7.5m/s | -42.7°C | 24.4% | 0hPa | 0V | 00:00:00 | 00:00:00 | 00:00:00 | |
| DL9RDZ-1 | 2026-09-04 23:22:49 | 63.98675 | -22.50294 | 112° | 29km/h | 7928m | 4.6m/s | -42.4°C | 31.5% | 0hPa | 0V | 00:00:00 | 00:00:00 | 00:00:00 | |
| DL9RDZ-1 | 2026-09-04 23:22:38 | 63.98640 | -22.50394 | 80° | 38km/h | 7855m | 11.1m/s | -41.9°C | 30.3% | 0hPa | 0V | 00:00:00 | 00:00:00 | 00:00:00 | |
| DL9RDZ-1 | 2026-09-04 23:22:27 | 63.98593 | -22.50499 | 353° | 35km/h | 7782m | 7.5m/s | -41.4°C | 33.9% | 0hPa | 0V | 00:00:00 | 00:00:00 | 00:00:00 | |
| DL9RDZ-1 | 2026-09-04 23:22:16 | 63.98567 | -22.50550 | 91° | 24km/h | 7709m | 2.3m/s | -41.2°C | 38.0% | 0hPa | 0V | 00:00:00 | 00:00:00 | 00:00:00 | |
| DL9RDZ-1 | 2026-09-04 23:22:06 | 63.98527 | -22.50627 | 95° | 26km/h | 7633m | 2.0m/s | -40.9°C | 46.2% | 0hPa | 0V | 00:00:00 | 00:00:00 | 00:00:00 | |
| DL9RDZ-1 | 2026-09-04 23:21:54 | 63.98480 | -22.50714 | 294° | 26km/h | 7572m | 5.4m/s | -40.6°C | 43.8% | 0hPa | 0V | 00:00:00 | 00:00:00 | 00:00:00 | |
| DL9RDZ-1 | 2026-09-04 23:21:43 | 63.98430 | -22.50798 | 87° | 31km/h | 7499m | 8.3m/s | -40.3°C | 45.0% | 0hPa | 0V | 00:00:00 | 00:00:00 | 00:00:00 | |
| DL9RDZ-1 | 2026-09-04 23:21:32 | 63.98373 | -22.50851 | 38° | 22km/h | 7435m | 7.7m/s | -39.9°C | 52.2% | 0hPa | 0V | 00:00:00 | 00:00:00 | 00:00:00 | |
| DL9RDZ-1 | 2026-09-04 23:21:21 | 63.98317 | -22.50938 | 355° | 40km/h | 7368m | 4.5m/s | -39.4°C | 58.5% | 0hPa | 0V | 00:00:00 | 00:00:00 | 00:00:00 | |
| DL9RDZ-1 | 2026-09-04 23:21:11 | 63.98250 | -22.51020 | 1° | 26km/h | 7301m | 7.1m/s | -39.0°C | 63.3% | 0hPa | 0V | 00:00:00 | 00:00:00 | 00:00:00 | |
| DL9RDZ-1 | 2026-09-04 23:21:00 | 63.98199 | -22.51112 | 47° | 29km/h | 7230m | 2.9m/s | -38.5°C | 60.7% | 0hPa | 0V | 00:00:00 | 00:00:00 | 00:00:00 | |
| DL9RDZ-1 | 2026-09-04 23:20:50 | 63.98153 | -22.51134 | 65° | 42km/h | 7162m | 5.0m/s | -38.0°C | 60.1% | 0hPa | 0V | 00:00:00 | 00:00:00 | 00:00:00 | |
| DL9RDZ-1 | 2026-09-04 23:20:40 | 63.98088 | -22.51227 | 103° | 29km/h | 7087m | 8.9m/s | -37.5°C | 60.1% | 0hPa | 0V | 00:00:00 | 00:00:00 | 00:00:00 | |
| DL9RDZ-1 | 2026-09-04 23:20:29 | 63.98038 | -22.51311 | 333° | 22km/h | 7021m | 5.7m/s | -36.9°C | 53.6% | 0hPa | 0V | 00:00:00 | 00:00:00 | 00:00:00 | |
| DL9RDZ-1 | 2026-09-04 23:20:17 | 63.97996 | -22.51400 | 101° | 24km/h | 6963m | -1.0m/s | -36.3°C | 50.3% | 0hPa | 0V | 00:00:00 | 00:00:00 | 00:00:00 | |
| DL9RDZ-1 | 2026-09-04 23:20:04 | 63.97938 | -22.51474 | 9° | 20km/h | 6882m | 7.4m/s | -35.6°C | 47.2% | 0hPa | 0V | 00:00:00 | 00:00:00 | 00:00:00 | |
| DL9RDZ-1 | 2026-09-04 23:19:53 | 63.97906 | -22.51553 | 8° | 18km/h | 6817m | 7.6m/s | -35.2°C | 54.5% | 0hPa | 0V | 00:00:00 | 00:00:00 | 00:00:00 | |
| DL9RDZ-1 | 2026-09-04 23:19:41 | 63.97861 | -22.51603 | 59° | 5km/h | 6743m | 9.1m/s | -34.6°C | 51.7% | 0hPa | 0V | 00:00:00 | 00:00:00 | 00:00:00 | |
| DL9RDZ-1 | 2026-09-04 23:19:30 | 63.97816 | -22.51659 | 92° | 46km/h | 6675m | 6.0m/s | -34.0°C | 49.7% | 0hPa | 0V | 00:00:00 | 00:00:00 | 00:00:00 | |
| DL9RDZ-1 | 2026-09-04 23:19:20 | 63.97799 | -22.51710 | 53° | 24km/h | 6612m | 7.6m/s | -33.5°C | 48.2% | 0hPa | 0V | 00:00:00 | 00:00:00 | 00:00:00 | |
| DL9RDZ-1 | 2026-09-04 23:19:09 | 63.97786 | -22.51783 | 82° | 22km/h | 6546m | 8.2m/s | -33.0°C | 45.1% | 0hPa | 0V | 00:00:00 | 00:00:00 | 00:00:00 | |
| DL9RDZ-1 | 2026-09-04 23:18:59 | 63.97766 | -22.51858 | 24° | 15km/h | 6493m | 5.9m/s | -32.5°C | 46.9% | 0hPa | 0V | 00:00:00 | 00:00:00 | 00:00:00 | |
| DL9RDZ-1 | 2026-09-04 23:18:48 | 63.97729 | -22.51996 | 354° | 15km/h | 6427m | 7.0m/s | -32.0°C | 46.9% | 0hPa | 0V | 00:00:00 | 00:00:00 | 00:00:00 | |
| DL9RDZ-1 | 2026-09-04 23:18:37 | 63.97718 | -22.52100 | 66° | 29km/h | 6350m | 6.8m/s | -31.4°C | 44.6% | 0hPa | 0V | 00:00:00 | 00:00:00 | 00:00:00 | |
| DL9RDZ-1 | 2026-09-04 23:18:26 | 63.97692 | -22.52265 | 9° | 31km/h | 6288m | 3.3m/s | -30.9°C | 40.9% | 0hPa | 0V | 00:00:00 | 00:00:00 | 00:00:00 | |
| DL9RDZ-1 | 2026-09-04 23:18:15 | 63.97653 | -22.52395 | 82° | 42km/h | 6218m | 6.1m/s | -30.3°C | 40.9% | 0hPa | 0V | 00:00:00 | 00:00:00 | 00:00:00 | |
| DL9RDZ-1 | 2026-09-04 23:18:05 | 63.97618 | -22.52523 | 353° | 29km/h | 6148m | 8.7m/s | -29.6°C | 39.4% | 0hPa | 0V | 00:00:00 | 00:00:00 | 00:00:00 | |
| DL9RDZ-1 | 2026-09-04 23:17:54 | 63.97589 | -22.52669 | 81° | 38km/h | 6081m | 6.1m/s | -29.1°C | 38.6% | 0hPa | 0V | 00:00:00 | 00:00:00 | 00:00:00 | |
| DL9RDZ-1 | 2026-09-04 23:17:43 | 63.97555 | -22.52845 | 57° | 29km/h | 6014m | 5.4m/s | -28.4°C | 39.8% | 0hPa | 0V | 00:00:00 | 00:00:00 | 00:00:00 | |
| DL9RDZ-1 | 2026-09-04 23:17:32 | 63.97520 | -22.52942 | 59° | 38km/h | 5955m | 8.5m/s | -28.0°C | 40.6% | 0hPa | 0V | 00:00:00 | 00:00:00 | 00:00:00 | |
| DL9RDZ-1 | 2026-09-04 23:17:22 | 63.97499 | -22.53074 | 67° | 40km/h | 5892m | 4.1m/s | -27.4°C | 40.5% | 0hPa | 0V | 00:00:00 | 00:00:00 | 00:00:00 | |
| DL9RDZ-1 | 2026-09-04 23:17:11 | 63.97464 | -22.53184 | 50° | 51km/h | 5829m | 5.7m/s | -26.9°C | 37.3% | 0hPa | 0V | 00:00:00 | 00:00:00 | 00:00:00 | |
| DL9RDZ-1 | 2026-09-04 23:17:02 | 63.97460 | -22.53322 | 148° | 24km/h | 5769m | 3.2m/s | -26.3°C | 34.5% | 0hPa | 0V | 00:00:00 | 00:00:00 | 00:00:00 | |
| DL9RDZ-1 | 2026-09-04 23:16:51 | 63.97454 | -22.53442 | 64° | 40km/h | 5712m | 6.6m/s | -25.7°C | 32.6% | 0hPa | 0V | 00:00:00 | 00:00:00 | 00:00:00 | |
| DL9RDZ-1 | 2026-09-04 23:16:40 | 63.97428 | -22.53536 | 161° | 27km/h | 5642m | 7.0m/s | -25.1°C | 31.1% | 0hPa | 0V | 00:00:00 | 00:00:00 | 00:00:00 | |
| DL9RDZ-1 | 2026-09-04 23:16:30 | 63.97429 | -22.53627 | 124° | 27km/h | 5588m | 3.5m/s | -24.6°C | 29.0% | 0hPa | 0V | 00:00:00 | 00:00:00 | 00:00:00 | |
| DL9RDZ-1 | 2026-09-04 23:16:09 | 63.97401 | -22.53858 | 112° | 35km/h | 5441m | 6.4m/s | -23.7°C | 25.2% | 0hPa | 0V | 00:00:00 | 00:00:00 | 00:00:00 | |
| DL9RDZ-1 | 2026-09-04 23:15:58 | 63.97404 | -22.53991 | 137° | 31km/h | 5373m | 5.8m/s | -23.2°C | 25.7% | 0hPa | 0V | 00:00:00 | 00:00:00 | 00:00:00 | |
| DL9RDZ-1 | 2026-09-04 23:15:47 | 63.97380 | -22.54159 | 52° | 49km/h | 5309m | 3.9m/s | -22.7°C | 30.7% | 0hPa | 0V | 00:00:00 | 00:00:00 | 00:00:00 | |
| DL9RDZ-1 | 2026-09-04 23:15:37 | 63.97369 | -22.54292 | 87° | 47km/h | 5243m | 4.4m/s | -22.3°C | 38.2% | 0hPa | 0V | 00:00:00 | 00:00:00 | 00:00:00 | |
| DL9RDZ-1 | 2026-09-04 23:15:26 | 63.97335 | -22.54396 | 161° | 13km/h | 5175m | 4.8m/s | -21.6°C | 42.9% | 0hPa | 0V | 00:00:00 | 00:00:00 | 00:00:00 | |
| DL9RDZ-1 | 2026-09-04 23:15:04 | 63.97290 | -22.54641 | 357° | 20km/h | 5028m | 6.5m/s | -20.6°C | 49.0% | 0hPa | 0V | 00:00:00 | 00:00:00 | 00:00:00 | |
| DL9RDZ-1 | 2026-09-04 23:14:54 | 63.97272 | -22.54748 | 83° | 46km/h | 4958m | 2.5m/s | -20.2°C | 55.7% | 0hPa | 0V | 00:00:00 | 00:00:00 | 00:00:00 | |
| DL9RDZ-1 | 2026-09-04 23:14:44 | 63.97246 | -22.54864 | 161° | 29km/h | 4898m | 3.3m/s | -19.6°C | 55.3% | 0hPa | 0V | 00:00:00 | 00:00:00 | 00:00:00 | |
| DL9RDZ-1 | 2026-09-04 23:14:32 | 63.97233 | -22.54998 | 80° | 42km/h | 4840m | 2.3m/s | -19.2°C | 58.2% | 0hPa | 0V | 00:00:00 | 00:00:00 | 00:00:00 | |
| DL9RDZ-1 | 2026-09-04 23:14:22 | 63.97208 | -22.55093 | 305° | 16km/h | 4777m | 3.9m/s | -18.7°C | 57.7% | 0hPa | 0V | 00:00:00 | 00:00:00 | 00:00:00 | |
| DL9RDZ-1 | 2026-09-04 23:14:11 | 63.97189 | -22.55209 | 31° | 44km/h | 4704m | 5.9m/s | -18.1°C | 58.6% | 0hPa | 0V | 00:00:00 | 00:00:00 | 00:00:00 | |
| DL9RDZ-1 | 2026-09-04 23:14:00 | 63.97171 | -22.55272 | 93° | 37km/h | 4632m | 5.1m/s | -17.5°C | 57.2% | 0hPa | 0V | 00:00:00 | 00:00:00 | 00:00:00 | |
| DL9RDZ-1 | 2026-09-04 23:13:49 | 63.97139 | -22.55340 | 35° | 31km/h | 4565m | 8.5m/s | -17.0°C | 55.0% | 0hPa | 0V | 00:00:00 | 00:00:00 | 00:00:00 | |
| DL9RDZ-1 | 2026-09-04 23:13:38 | 63.97121 | -22.55407 | 146° | 24km/h | 4499m | 1.8m/s | -16.6°C | 54.9% | 0hPa | 0V | 00:00:00 | 00:00:00 | 00:00:00 | |
| DL9RDZ-1 | 2026-09-04 23:13:27 | 63.97097 | -22.55476 | 17° | 27km/h | 4437m | 5.9m/s | -16.1°C | 53.2% | 0hPa | 0V | 00:00:00 | 00:00:00 | 00:00:00 | |
| DL9RDZ-1 | 2026-09-04 23:13:17 | 63.97075 | -22.55524 | 299° | 5km/h | 4380m | 6.1m/s | -15.7°C | 54.8% | 0hPa | 0V | 00:00:00 | 00:00:00 | 00:00:00 | |
| DL9RDZ-1 | 2026-09-04 23:13:06 | 63.97067 | -22.55530 | 348° | 22km/h | 4311m | 5.3m/s | -15.2°C | 52.3% | 0hPa | 0V | 00:00:00 | 00:00:00 | 00:00:00 | |
| DL9RDZ-1 | 2026-09-04 23:12:56 | 63.97055 | -22.55587 | 111° | 16km/h | 4253m | 7.2m/s | -14.8°C | 54.7% | 0hPa | 0V | 00:00:00 | 00:00:00 | 00:00:00 | |
| DL9RDZ-1 | 2026-09-04 23:12:45 | 63.97029 | -22.55632 | 43° | 42km/h | 4194m | 4.8m/s | -14.4°C | 55.9% | 0hPa | 0V | 00:00:00 | 00:00:00 | 00:00:00 | |
| DL9RDZ-1 | 2026-09-04 23:12:34 | 63.97006 | -22.55707 | 171° | 18km/h | 4133m | 5.4m/s | -14.0°C | 55.2% | 0hPa | 0V | 00:00:00 | 00:00:00 | 00:00:00 | |
| DL9RDZ-1 | 2026-09-04 23:12:24 | 63.96997 | -22.55793 | 51° | 44km/h | 4075m | 7.3m/s | -13.5°C | 52.0% | 0hPa | 0V | 00:00:00 | 00:00:00 | 00:00:00 | |
| DL9RDZ-1 | 2026-09-04 23:12:13 | 63.96984 | -22.55862 | 98° | 35km/h | 3998m | 6.6m/s | -13.1°C | 52.1% | 0hPa | 0V | 00:00:00 | 00:00:00 | 00:00:00 | |
| DL9RDZ-1 | 2026-09-04 23:12:03 | 63.96968 | -22.55960 | 89° | 18km/h | 3938m | 6.2m/s | -13.1°C | 57.2% | 0hPa | 0V | 00:00:00 | 00:00:00 | 00:00:00 | |
| DL9RDZ-1 | 2026-09-04 23:11:53 | 63.96966 | -22.56005 | 334° | 26km/h | 3869m | 3.5m/s | -12.6°C | 56.4% | 0hPa | 0V | 00:00:00 | 00:00:00 | 00:00:00 | |
| DL9RDZ-1 | 2026-09-04 23:11:43 | 63.96941 | -22.56058 | 77° | 40km/h | 3806m | 5.9m/s | -12.1°C | 54.9% | 0hPa | 0V | 00:00:00 | 00:00:00 | 00:00:00 | |
| DL9RDZ-1 | 2026-09-04 23:11:31 | 63.96927 | -22.56136 | 336° | 20km/h | 3741m | 5.3m/s | -11.6°C | 48.7% | 0hPa | 0V | 00:00:00 | 00:00:00 | 00:00:00 | |
| DL9RDZ-1 | 2026-09-04 23:11:20 | 63.96906 | -22.56234 | 132° | 22km/h | 3676m | 7.5m/s | -11.2°C | 46.2% | 0hPa | 0V | 00:00:00 | 00:00:00 | 00:00:00 | |
| DL9RDZ-1 | 2026-09-04 23:11:10 | 63.96888 | -22.56287 | 56° | 38km/h | 3615m | 3.8m/s | -10.8°C | 44.5% | 0hPa | 0V | 00:00:00 | 00:00:00 | 00:00:00 | |
| DL9RDZ-1 | 2026-09-04 23:10:59 | 63.96860 | -22.56338 | 104° | 15km/h | 3541m | 5.6m/s | -10.3°C | 40.6% | 0hPa | 0V | 00:00:00 | 00:00:00 | 00:00:00 | |
| DL9RDZ-1 | 2026-09-04 23:10:48 | 63.96853 | -22.56380 | 29° | 29km/h | 3476m | 4.7m/s | -10.0°C | 31.0% | 0hPa | 0V | 00:00:00 | 00:00:00 | 00:00:00 | |
| DL9RDZ-1 | 2026-09-04 23:10:37 | 63.96844 | -22.56460 | 334° | 20km/h | 3406m | 4.3m/s | -9.4°C | 29.8% | 0hPa | 0V | 00:00:00 | 00:00:00 | 00:00:00 | |
| DL9RDZ-1 | 2026-09-04 23:10:27 | 63.96838 | -22.56536 | 143° | 24km/h | 3342m | 9.2m/s | -8.8°C | 28.1% | 0hPa | 0V | 00:00:00 | 00:00:00 | 00:00:00 | |
| DL9RDZ-1 | 2026-09-04 23:09:56 | 63.96830 | -22.56663 | 150° | 27km/h | 3146m | 5.6m/s | -7.4°C | 23.4% | 0hPa | 0V | 00:00:00 | 00:00:00 | 00:00:00 | |
| DL9RDZ-1 | 2026-09-04 23:09:45 | 63.96817 | -22.56745 | 197° | 9km/h | 3080m | 4.1m/s | -7.4°C | 18.8% | 0hPa | 0V | 00:00:00 | 00:00:00 | 00:00:00 | |
| DL9RDZ-1 | 2026-09-04 23:09:34 | 63.96804 | -22.56802 | 108° | 29km/h | 3018m | 5.8m/s | -7.6°C | 57.6% | 0hPa | 0V | 00:00:00 | 00:00:00 | 00:00:00 | |
| DL9RDZ-1 | 2026-09-04 23:09:23 | 63.96789 | -22.56822 | 196° | 9km/h | 2957m | 4.7m/s | -7.3°C | 68.1% | 0hPa | 0V | 00:00:00 | 00:00:00 | 00:00:00 | |
| DL9RDZ-1 | 2026-09-04 23:09:13 | 63.96778 | -22.56871 | 30° | 24km/h | 2902m | 5.1m/s | -7.4°C | 80.0% | 0hPa | 0V | 00:00:00 | 00:00:00 | 00:00:00 | |
| DL9RDZ-1 | 2026-09-04 23:09:03 | 63.96776 | -22.56863 | 146° | 22km/h | 2843m | 7.9m/s | -7.0°C | 76.3% | 0hPa | 0V | 00:00:00 | 00:00:00 | 00:00:00 | |
| DL9RDZ-1 | 2026-09-04 23:08:53 | 63.96785 | -22.56899 | 207° | 24km/h | 2777m | 5.6m/s | -6.5°C | 69.3% | 0hPa | 0V | 00:00:00 | 00:00:00 | 00:00:00 | |
| DL9RDZ-1 | 2026-09-04 23:07:41 | 63.96869 | -22.57462 | 140° | 4km/h | 2342m | 4.6m/s | -3.6°C | 54.7% | 0hPa | 0V | 00:00:00 | 00:00:00 | 00:00:00 | |
| DL9RDZ-1 | 2026-09-04 23:07:21 | 63.96853 | -22.57661 | 179° | 11km/h | 2219m | 5.0m/s | -2.6°C | 52.8% | 0hPa | 0V | 00:00:00 | 00:00:00 | 00:00:00 | |
| DL9RDZ-1 | 2026-09-04 23:07:06 | 63.96835 | -22.57770 | 95° | 24km/h | 2132m | 8.0m/s | -2.0°C | 53.1% | 0hPa | 0V | 00:00:00 | 00:00:00 | 00:00:00 | |
| DL9RDZ-1 | 2026-09-04 23:06:56 | 63.96841 | -22.57825 | 343° | 5km/h | 2064m | 6.1m/s | -1.5°C | 52.4% | 0hPa | 0V | 00:00:00 | 00:00:00 | 00:00:00 | |
| DL9RDZ-1 | 2026-09-04 23:06:46 | 63.96853 | -22.57904 | 58° | 31km/h | 2005m | 2.8m/s | -1.1°C | 50.9% | 0hPa | 0V | 00:00:00 | 00:00:00 | 00:00:00 | |
| DL9RDZ-1 | 2026-09-04 23:06:35 | 63.96854 | -22.57997 | 212° | 13km/h | 1946m | 10.7m/s | -0.9°C | 52.7% | 0hPa | 0V | 00:00:00 | 00:00:00 | 00:00:00 | |
| DL9RDZ-1 | 2026-09-04 23:06:22 | 63.96858 | -22.58107 | 134° | 27km/h | 1860m | 6.1m/s | -0.7°C | 52.9% | 0hPa | 0V | 00:00:00 | 00:00:00 | 00:00:00 | |
| DL9RDZ-1 | 2026-09-04 23:06:10 | 63.96857 | -22.58221 | 237° | 13km/h | 1792m | 5.2m/s | -0.3°C | 51.8% | 0hPa | 0V | 00:00:00 | 00:00:00 | 00:00:00 | |
| DL9RDZ-1 | 2026-09-04 23:06:00 | 63.96871 | -22.58311 | 242° | 9km/h | 1734m | 8.1m/s | -0.2°C | 59.2% | 0hPa | 0V | 00:00:00 | 00:00:00 | 00:00:00 | |
| DL9RDZ-1 | 2026-09-04 23:05:49 | 63.96853 | -22.58379 | 43° | 18km/h | 1665m | 7.4m/s | -0.2°C | 68.6% | 0hPa | 0V | 00:00:00 | 00:00:00 | 00:00:00 | |
| DL9RDZ-1 | 2026-09-04 23:05:39 | 63.96849 | -22.58457 | 154° | 22km/h | 1603m | 6.8m/s | 0.3°C | 66.4% | 0hPa | 0V | 00:00:00 | 00:00:00 | 00:00:00 | |
| DL9RDZ-1 | 2026-09-04 23:05:29 | 63.96850 | -22.58509 | 57° | 16km/h | 1547m | 6.7m/s | 0.7°C | 58.9% | 0hPa | 0V | 00:00:00 | 00:00:00 | 00:00:00 | |
| DL9RDZ-1 | 2026-09-04 23:05:19 | 63.96845 | -22.58611 | 167° | 13km/h | 1484m | 4.9m/s | 1.0°C | 58.1% | 0hPa | 0V | 00:00:00 | 00:00:00 | 00:00:00 | |
| DL9RDZ-1 | 2026-09-04 23:05:08 | 63.96841 | -22.58689 | 108° | 27km/h | 1424m | 6.4m/s | 1.3°C | 64.5% | 0hPa | 0V | 00:00:00 | 00:00:00 | 00:00:00 | |
| DL9RDZ-1 | 2026-09-04 23:04:58 | 63.96851 | -22.58753 | 37° | 16km/h | 1364m | 6.7m/s | 1.8°C | 0% | 0hPa | 0V | 00:00:00 | 00:00:00 | 00:00:00 | |
| DL9RDZ-1 | 2026-09-04 23:04:48 | 63.96845 | -22.58838 | 117° | 20km/h | 1300m | 9.9m/s | 2.2°C | 0% | 0hPa | 0V | 00:00:00 | 00:00:00 | 00:00:00 | |
| DL9RDZ-1 | 2026-09-04 23:04:37 | 63.96840 | -22.58913 | 94° | 27km/h | 1234m | 6.4m/s | 2.5°C | 0% | 0hPa | 0V | 00:00:00 | 00:00:00 | 00:00:00 | |
| DL9RDZ-1 | 2026-09-04 23:04:25 | 63.96827 | -22.59022 | 141° | 22km/h | 1171m | 5.9m/s | 2.6°C | 0% | 0hPa | 0V | 00:00:00 | 00:00:00 | 00:00:00 | |
| DL9RDZ-1 | 2026-09-04 23:04:14 | 63.96815 | -22.59117 | 50° | 11km/h | 1111m | 7.8m/s | 0°C | 0% | 0hPa | 0V | 00:00:00 | 00:00:00 | 00:00:00 | |
| DL9RDZ-1 | 2026-09-04 23:04:04 | 63.96812 | -22.59202 | 56° | 37km/h | 1055m | 2.9m/s | 0°C | 0% | 0hPa | 0V | 00:00:00 | 00:00:00 | 00:00:00 | |
| DL9RDZ-1 | 2026-09-04 23:03:54 | 63.96814 | -22.59310 | 64° | 35km/h | 996m | 8.2m/s | 0°C | 0% | 0hPa | 0V | 00:00:00 | 00:00:00 | 00:00:00 |